Time,TemperatureF,DewpointF,PressureIn,WindDirection,WindDirectionDegrees,WindSpeedMPH,WindSpeedGustMPH,Humidity,HourlyPrecipIn,Conditions,Clouds,dailyrainin,SoftwareType,DateUTC
2013-12-17 00:00:00,24.0,22.0,30.11,WNW,294,10.0,10.0,92,0.00,,,0.00,VWS V14.01,2013-12-17 06:00:00,
2013-12-17 00:01:00,24.0,22.0,30.11,WNW,294,10.0,10.0,92,0.00,,,0.00,VWS V14.01,2013-12-17 06:01:00,
2013-12-17 00:06:00,24.0,22.0,30.11,WNW,297,6.0,13.0,92,0.00,,,0.00,VWS V14.01,2013-12-17 06:06:00,
2013-12-17 00:11:00,24.0,22.0,30.11,NW,304,7.0,13.0,92,0.00,,,0.00,VWS V14.01,2013-12-17 06:11:00,
2013-12-17 00:12:00,23.8,21.8,30.11,NW,313,0.0,13.0,92,0.00,,,0.00,VWS V14.01,2013-12-17 06:12:00,
2013-12-17 00:16:00,23.8,21.8,30.10,WNW,294,5.0,13.0,92,0.00,,,0.00,VWS V14.01,2013-12-17 06:16:00,
2013-12-17 00:17:00,23.8,21.8,30.10,NNW,329,0.0,13.0,92,0.00,,,0.00,VWS V14.01,2013-12-17 06:17:00,
2013-12-17 00:18:00,23.8,21.8,30.10,NW,321,0.0,13.0,92,0.00,,,0.00,VWS V14.01,2013-12-17 06:18:00,
2013-12-17 00:21:00,23.8,21.8,30.10,NW,304,6.0,13.0,92,0.00,,,0.00,VWS V14.01,2013-12-17 06:21:00,
2013-12-17 00:22:00,23.8,21.8,30.10,NW,324,3.0,13.0,92,0.00,,,0.00,VWS V14.01,2013-12-17 06:22:00,
2013-12-17 00:23:00,23.7,21.7,30.10,NNW,336,4.0,13.0,92,0.00,,,0.00,VWS V14.01,2013-12-17 06:23:00,
2013-12-17 00:27:00,23.7,21.7,30.10,NNW,338,12.0,13.0,92,0.00,,,0.00,VWS V14.01,2013-12-17 06:27:00,
2013-12-17 00:28:00,23.7,21.7,30.10,NW,325,6.0,13.0,92,0.00,,,0.00,VWS V14.01,2013-12-17 06:28:00,
2013-12-17 00:30:00,23.5,21.5,30.10,NNW,340,0.0,13.0,92,0.00,,,0.00,VWS V14.01,2013-12-17 06:30:00,
2013-12-17 00:32:00,23.5,21.5,30.10,NNW,337,0.0,0.0,92,0.00,,,0.00,VWS V14.01,2013-12-17 06:32:00,
2013-12-17 00:33:00,23.5,21.5,30.10,NW,325,0.0,0.0,92,0.00,,,0.00,VWS V14.01,2013-12-17 06:33:00,
2013-12-17 00:37:00,23.4,21.4,30.10,NW,317,6.0,7.0,92,0.00,,,0.00,VWS V14.01,2013-12-17 06:37:00,
2013-12-17 00:38:00,23.4,21.4,30.10,North,360,5.0,11.0,92,0.00,,,0.00,VWS V14.01,2013-12-17 06:38:00,
2013-12-17 00:42:00,23.2,21.2,30.10,NW,326,5.0,12.0,92,0.00,,,0.00,VWS V14.01,2013-12-17 06:42:00,
2013-12-17 00:43:00,23.2,21.2,30.10,NNW,342,4.0,12.0,92,0.00,,,0.00,VWS V14.01,2013-12-17 06:43:00,
2013-12-17 00:44:00,23.1,21.1,30.10,NNW,342,9.0,12.0,92,0.00,,,0.00,VWS V14.01,2013-12-17 06:44:00,
2013-12-17 00:47:00,23.1,21.1,30.09,NW,320,5.0,12.0,92,0.00,,,0.00,VWS V14.01,2013-12-17 06:47:00,
2013-12-17 00:48:00,23.1,21.1,30.09,NW,322,0.0,12.0,92,0.00,,,0.00,VWS V14.01,2013-12-17 06:48:00,
2013-12-17 00:49:00,23.1,21.1,30.09,NW,308,4.0,12.0,92,0.00,,,0.00,VWS V14.01,2013-12-17 06:49:00,
2013-12-17 00:52:00,23.1,21.1,30.09,WNW,299,0.0,12.0,92,0.00,,,0.00,VWS V14.01,2013-12-17 06:52:00,
2013-12-17 00:53:00,23.1,21.1,30.09,WNW,303,0.0,12.0,92,0.00,,,0.00,VWS V14.01,2013-12-17 06:53:00,
2013-12-17 00:54:00,23.1,21.1,30.09,NW,319,0.0,12.0,92,0.00,,,0.00,VWS V14.01,2013-12-17 06:54:00,
2013-12-17 00:57:00,23.1,21.1,30.09,WNW,298,2.0,12.0,92,0.00,,,0.00,VWS V14.01,2013-12-17 06:57:00,
2013-12-17 00:58:00,23.1,21.1,30.09,NW,323,0.0,12.0,92,0.00,,,0.00,VWS V14.01,2013-12-17 06:58:00,
2013-12-17 00:59:00,23.1,21.1,30.09,North,355,3.0,12.0,92,0.00,,,0.00,VWS V14.01,2013-12-17 06:59:00,
2013-12-17 01:00:00,23.1,21.1,30.08,NW,306,3.0,12.0,92,0.00,,,0.00,VWS V14.01,2013-12-17 07:00:00,
2013-12-17 01:02:00,23.1,21.1,30.08,NW,324,4.0,7.0,92,0.00,,,0.00,VWS V14.01,2013-12-17 07:02:00,
2013-12-17 01:03:00,23.1,21.4,30.08,WNW,296,4.0,7.0,93,0.00,,,0.00,VWS V14.01,2013-12-17 07:03:00,
2013-12-17 01:06:00,23.1,21.1,30.08,NW,314,3.0,7.0,92,0.00,,,0.00,VWS V14.01,2013-12-17 07:06:00,
2013-12-17 01:07:00,23.1,21.1,30.08,NW,314,2.0,7.0,92,0.00,,,0.00,VWS V14.01,2013-12-17 07:07:00,
2013-12-17 01:08:00,23.1,21.1,30.08,WNW,284,2.0,7.0,92,0.00,,,0.00,VWS V14.01,2013-12-17 07:08:00,
2013-12-17 01:09:00,23.1,21.1,30.08,NW,318,2.0,7.0,92,0.00,,,0.00,VWS V14.01,2013-12-17 07:09:00,
2013-12-17 01:12:00,23.1,21.1,30.08,NNW,327,6.0,9.0,92,0.00,,,0.00,VWS V14.01,2013-12-17 07:12:00,
2013-12-17 01:13:00,23.1,21.1,30.08,NW,304,4.0,9.0,92,0.00,,,0.00,VWS V14.01,2013-12-17 07:13:00,
2013-12-17 01:14:00,23.1,21.1,30.08,NW,325,0.0,9.0,92,0.00,,,0.00,VWS V14.01,2013-12-17 07:14:00,
2013-12-17 01:17:00,23.1,21.1,30.09,WNW,283,6.0,9.0,92,0.00,,,0.00,VWS V14.01,2013-12-17 07:17:00,
2013-12-17 01:18:00,23.1,21.1,30.09,NW,309,5.0,9.0,92,0.00,,,0.00,VWS V14.01,2013-12-17 07:18:00,
2013-12-17 01:19:00,23.1,21.1,30.09,NW,313,0.0,9.0,92,0.00,,,0.00,VWS V14.01,2013-12-17 07:19:00,
2013-12-17 01:22:00,23.1,21.1,30.09,NW,308,3.0,9.0,92,0.00,,,0.00,VWS V14.01,2013-12-17 07:22:00,
2013-12-17 01:23:00,23.1,21.1,30.09,NW,309,0.0,9.0,92,0.00,,,0.00,VWS V14.01,2013-12-17 07:23:00,
2013-12-17 01:24:00,23.1,21.1,30.09,NW,304,4.0,9.0,92,0.00,,,0.00,VWS V14.01,2013-12-17 07:24:00,
2013-12-17 01:27:00,22.9,20.9,30.09,WNW,296,3.0,9.0,92,0.00,,,0.00,VWS V14.01,2013-12-17 07:27:00,
2013-12-17 01:28:00,22.9,20.9,30.09,WNW,298,3.0,9.0,92,0.00,,,0.00,VWS V14.01,2013-12-17 07:28:00,
2013-12-17 01:29:00,22.9,20.9,30.09,NW,309,4.0,9.0,92,0.00,,,0.00,VWS V14.01,2013-12-17 07:29:00,
2013-12-17 01:30:00,22.9,20.9,30.11,NW,304,3.0,10.0,92,0.00,,,0.00,VWS V14.01,2013-12-17 07:30:00,
2013-12-17 01:32:00,22.9,20.9,30.11,NW,313,0.0,3.0,92,0.00,,,0.00,VWS V14.01,2013-12-17 07:32:00,
2013-12-17 01:34:00,22.9,20.9,30.11,NW,309,7.0,10.0,92,0.00,,,0.00,VWS V14.01,2013-12-17 07:34:00,
2013-12-17 01:38:00,22.9,20.9,30.11,WNW,301,0.0,10.0,92,0.00,,,0.00,VWS V14.01,2013-12-17 07:38:00,
2013-12-17 01:39:00,22.9,20.9,30.11,NNW,344,0.0,10.0,92,0.00,,,0.00,VWS V14.01,2013-12-17 07:39:00,
2013-12-17 01:40:00,22.9,20.9,30.11,NW,311,2.0,10.0,92,0.00,,,0.00,VWS V14.01,2013-12-17 07:40:00,
2013-12-17 01:46:00,22.9,20.9,30.11,NW,309,0.0,10.0,92,0.00,,,0.00,VWS V14.01,2013-12-17 07:46:00,
2013-12-17 01:47:00,22.9,20.9,30.11,NW,323,0.0,10.0,92,0.00,,,0.00,VWS V14.01,2013-12-17 07:47:00,
2013-12-17 01:51:00,22.9,20.9,30.11,NW,309,0.0,10.0,92,0.00,,,0.00,VWS V14.01,2013-12-17 07:51:00,
2013-12-17 01:52:00,22.9,20.9,30.11,NW,309,0.0,10.0,92,0.00,,,0.00,VWS V14.01,2013-12-17 07:52:00,
2013-12-17 01:56:00,22.9,20.9,30.11,NW,314,0.0,10.0,92,0.00,,,0.00,VWS V14.01,2013-12-17 07:56:00,
2013-12-17 01:57:00,22.9,20.9,30.11,NW,314,0.0,10.0,92,0.00,,,0.00,VWS V14.01,2013-12-17 07:57:00,
2013-12-17 01:58:00,22.9,20.9,30.11,NW,314,0.0,10.0,92,0.00,,,0.00,VWS V14.01,2013-12-17 07:58:00,
2013-12-17 02:00:00,22.9,20.9,30.10,NW,324,4.0,10.0,92,0.00,,,0.00,VWS V14.01,2013-12-17 08:00:00,
2013-12-17 02:01:00,22.9,20.9,30.10,NW,314,6.0,10.0,92,0.00,,,0.00,VWS V14.01,2013-12-17 08:01:00,
2013-12-17 02:02:00,22.9,20.9,30.10,NW,315,4.0,10.0,92,0.00,,,0.00,VWS V14.01,2013-12-17 08:02:00,
2013-12-17 02:03:00,22.9,20.9,30.10,NW,317,0.0,10.0,92,0.00,,,0.00,VWS V14.01,2013-12-17 08:03:00,
2013-12-17 02:07:00,22.9,20.9,30.10,NW,312,0.0,10.0,92,0.00,,,0.00,VWS V14.01,2013-12-17 08:07:00,
2013-12-17 02:08:00,22.9,20.9,30.10,NW,319,0.0,10.0,92,0.00,,,0.00,VWS V14.01,2013-12-17 08:08:00,
2013-12-17 02:12:00,22.8,20.8,30.10,NW,311,0.0,10.0,92,0.00,,,0.00,VWS V14.01,2013-12-17 08:12:00,
2013-12-17 02:13:00,22.8,20.8,30.10,NW,318,0.0,10.0,92,0.00,,,0.00,VWS V14.01,2013-12-17 08:13:00,
2013-12-17 02:14:00,22.8,20.8,30.10,NW,326,0.0,10.0,92,0.00,,,0.00,VWS V14.01,2013-12-17 08:14:00,
2013-12-17 02:17:00,22.9,20.9,30.11,North,355,5.0,10.0,92,0.00,,,0.00,VWS V14.01,2013-12-17 08:17:00,
2013-12-17 02:18:00,22.9,20.9,30.11,NW,318,5.0,10.0,92,0.00,,,0.00,VWS V14.01,2013-12-17 08:18:00,
2013-12-17 02:19:00,22.9,20.9,30.11,NW,313,0.0,10.0,92,0.00,,,0.00,VWS V14.01,2013-12-17 08:19:00,
2013-12-17 02:22:00,22.9,20.9,30.11,WNW,286,0.0,10.0,92,0.00,,,0.00,VWS V14.01,2013-12-17 08:22:00,
2013-12-17 02:23:00,22.9,20.9,30.11,WNW,296,0.0,10.0,92,0.00,,,0.00,VWS V14.01,2013-12-17 08:23:00,
2013-12-17 02:24:00,22.9,20.9,30.11,NNW,329,0.0,10.0,92,0.00,,,0.00,VWS V14.01,2013-12-17 08:24:00,
2013-12-17 02:27:00,22.9,20.9,30.11,NNW,331,0.0,10.0,92,0.00,,,0.00,VWS V14.01,2013-12-17 08:27:00,
2013-12-17 02:28:00,22.9,20.9,30.11,NNW,331,0.0,10.0,92,0.00,,,0.00,VWS V14.01,2013-12-17 08:28:00,
2013-12-17 02:29:00,22.9,20.9,30.11,NNW,331,0.0,10.0,92,0.00,,,0.00,VWS V14.01,2013-12-17 08:29:00,
2013-12-17 02:30:00,22.9,20.9,30.12,NW,316,7.0,10.0,92,0.00,,,0.00,VWS V14.01,2013-12-17 08:30:00,
2013-12-17 02:32:00,22.9,20.9,30.12,NW,321,0.0,7.0,92,0.00,,,0.00,VWS V14.01,2013-12-17 08:32:00,
2013-12-17 02:33:00,22.9,20.9,30.12,NNW,338,0.0,7.0,92,0.00,,,0.00,VWS V14.01,2013-12-17 08:33:00,
2013-12-17 02:34:00,22.9,20.9,30.12,NW,317,0.0,7.0,92,0.00,,,0.00,VWS V14.01,2013-12-17 08:34:00,
2013-12-17 02:37:00,23.1,21.1,30.12,NW,319,1.0,7.0,92,0.00,,,0.00,VWS V14.01,2013-12-17 08:37:00,
2013-12-17 02:38:00,23.1,21.1,30.12,NW,313,5.0,7.0,92,0.00,,,0.00,VWS V14.01,2013-12-17 08:38:00,
2013-12-17 02:39:00,23.1,21.1,30.12,NW,310,6.0,7.0,92,0.00,,,0.00,VWS V14.01,2013-12-17 08:39:00,
2013-12-17 02:42:00,23.1,21.1,30.12,NNW,337,0.0,7.0,92,0.00,,,0.00,VWS V14.01,2013-12-17 08:42:00,
2013-12-17 02:43:00,23.1,21.1,30.12,NNW,336,0.0,7.0,92,0.00,,,0.00,VWS V14.01,2013-12-17 08:43:00,
2013-12-17 02:44:00,23.1,21.1,30.13,NW,326,3.0,7.0,92,0.00,,,0.00,VWS V14.01,2013-12-17 08:44:00,
2013-12-17 02:45:00,23.1,21.1,30.13,NNW,327,0.0,7.0,92,0.00,,,0.00,VWS V14.01,2013-12-17 08:45:00,
2013-12-17 02:47:00,23.1,21.1,30.13,NW,316,3.0,7.0,92,0.00,,,0.00,VWS V14.01,2013-12-17 08:47:00,
2013-12-17 02:48:00,23.1,21.1,30.13,NW,316,3.0,7.0,92,0.00,,,0.00,VWS V14.01,2013-12-17 08:48:00,
2013-12-17 02:49:00,23.1,21.1,30.13,NW,319,0.0,7.0,92,0.00,,,0.00,VWS V14.01,2013-12-17 08:49:00,
2013-12-17 02:50:00,23.1,21.1,30.13,NW,317,0.0,7.0,92,0.00,,,0.00,VWS V14.01,2013-12-17 08:50:00,
2013-12-17 02:53:00,23.1,21.1,30.13,NW,312,0.0,7.0,92,0.00,,,0.00,VWS V14.01,2013-12-17 08:53:00,
2013-12-17 02:54:00,23.1,21.1,30.13,NW,313,0.0,7.0,92,0.00,,,0.00,VWS V14.01,2013-12-17 08:54:00,
2013-12-17 02:55:00,23.1,21.1,30.13,NW,311,0.0,7.0,92,0.00,,,0.00,VWS V14.01,2013-12-17 08:55:00,
2013-12-17 02:58:00,23.1,21.1,30.13,NW,311,0.0,7.0,92,0.00,,,0.00,VWS V14.01,2013-12-17 08:58:00,
2013-12-17 02:59:00,23.1,21.1,30.13,NW,311,0.0,7.0,92,0.00,,,0.00,VWS V14.01,2013-12-17 08:59:00,
2013-12-17 03:00:00,23.1,21.1,30.11,NW,311,0.0,7.0,92,0.00,,,0.00,VWS V14.01,2013-12-17 09:00:00,
2013-12-17 03:03:00,23.1,21.1,30.11,NW,311,0.0,0.0,92,0.00,,,0.00,VWS V14.01,2013-12-17 09:03:00,
2013-12-17 03:04:00,23.1,21.1,30.11,NW,311,0.0,0.0,92,0.00,,,0.00,VWS V14.01,2013-12-17 09:04:00,
2013-12-17 03:05:00,23.1,21.1,30.11,NW,311,0.0,0.0,92,0.00,,,0.00,VWS V14.01,2013-12-17 09:05:00,
2013-12-17 03:09:00,23.1,21.1,30.11,NW,311,0.0,0.0,92,0.00,,,0.00,VWS V14.01,2013-12-17 09:09:00,
2013-12-17 03:12:00,23.1,21.1,30.11,NW,311,0.0,0.0,92,0.00,,,0.00,VWS V14.01,2013-12-17 09:12:00,
2013-12-17 03:14:00,23.1,21.1,30.11,NW,311,0.0,0.0,92,0.00,,,0.00,VWS V14.01,2013-12-17 09:14:00,
2013-12-17 03:15:00,23.1,21.1,30.11,NW,311,0.0,0.0,92,0.00,,,0.00,VWS V14.01,2013-12-17 09:15:00,
2013-12-17 03:17:00,23.1,21.1,30.11,NW,311,0.0,0.0,92,0.00,,,0.00,VWS V14.01,2013-12-17 09:17:00,
2013-12-17 03:19:00,23.1,21.1,30.11,NW,311,0.0,0.0,92,0.00,,,0.00,VWS V14.01,2013-12-17 09:19:00,
2013-12-17 03:20:00,23.1,21.1,30.11,NW,311,0.0,0.0,92,0.00,,,0.00,VWS V14.01,2013-12-17 09:20:00,
2013-12-17 03:22:00,23.1,21.1,30.11,NW,311,0.0,0.0,92,0.00,,,0.00,VWS V14.01,2013-12-17 09:22:00,
2013-12-17 03:24:00,23.1,21.1,30.11,NW,311,0.0,0.0,92,0.00,,,0.00,VWS V14.01,2013-12-17 09:24:00,
2013-12-17 03:25:00,23.1,21.1,30.11,NW,311,0.0,0.0,92,0.00,,,0.00,VWS V14.01,2013-12-17 09:25:00,
2013-12-17 03:27:00,23.1,21.1,30.11,NW,311,0.0,0.0,92,0.00,,,0.00,VWS V14.01,2013-12-17 09:27:00,
2013-12-17 03:29:00,23.1,21.1,30.10,NW,311,0.0,0.0,92,0.00,,,0.00,VWS V14.01,2013-12-17 09:29:00,
2013-12-17 03:30:00,23.1,21.1,30.10,NW,311,0.0,0.0,92,0.00,,,0.00,VWS V14.01,2013-12-17 09:30:00,
2013-12-17 03:32:00,23.1,21.1,30.10,NW,311,0.0,0.0,92,0.00,,,0.00,VWS V14.01,2013-12-17 09:32:00,
2013-12-17 03:33:00,23.1,21.1,30.10,NW,311,0.0,0.0,92,0.00,,,0.00,VWS V14.01,2013-12-17 09:33:00,
2013-12-17 03:34:00,23.1,21.1,30.10,NW,311,0.0,0.0,92,0.00,,,0.00,VWS V14.01,2013-12-17 09:34:00,
2013-12-17 03:35:00,23.1,21.1,30.10,NW,311,0.0,0.0,92,0.00,,,0.00,VWS V14.01,2013-12-17 09:35:00,
2013-12-17 03:37:00,23.2,21.2,30.10,NW,311,0.0,0.0,92,0.00,,,0.00,VWS V14.01,2013-12-17 09:37:00,
2013-12-17 03:38:00,23.2,21.2,30.10,NW,311,0.0,0.0,92,0.00,,,0.00,VWS V14.01,2013-12-17 09:38:00,
2013-12-17 03:39:00,23.2,21.2,30.10,NW,311,0.0,0.0,92,0.00,,,0.00,VWS V14.01,2013-12-17 09:39:00,
2013-12-17 03:40:00,23.2,21.2,30.10,NW,311,0.0,0.0,92,0.00,,,0.00,VWS V14.01,2013-12-17 09:40:00,
2013-12-17 03:42:00,23.2,21.2,30.10,NW,311,0.0,0.0,92,0.00,,,0.00,VWS V14.01,2013-12-17 09:42:00,
2013-12-17 03:43:00,23.2,21.2,30.10,NW,311,0.0,0.0,92,0.00,,,0.00,VWS V14.01,2013-12-17 09:43:00,
2013-12-17 03:45:00,23.2,21.2,30.10,NW,311,0.0,0.0,92,0.00,,,0.00,VWS V14.01,2013-12-17 09:45:00,
2013-12-17 03:48:00,23.2,21.2,30.10,NW,311,0.0,0.0,92,0.00,,,0.00,VWS V14.01,2013-12-17 09:48:00,
2013-12-17 03:50:00,23.2,21.2,30.10,NW,311,0.0,0.0,92,0.00,,,0.00,VWS V14.01,2013-12-17 09:50:00,
2013-12-17 03:53:00,23.2,21.2,30.10,NW,311,0.0,0.0,92,0.00,,,0.00,VWS V14.01,2013-12-17 09:53:00,
2013-12-17 03:55:00,23.2,21.2,30.10,NW,311,0.0,0.0,92,0.00,,,0.00,VWS V14.01,2013-12-17 09:55:00,
2013-12-17 03:58:00,23.2,21.2,30.10,NW,311,0.0,0.0,92,0.00,,,0.00,VWS V14.01,2013-12-17 09:58:00,
2013-12-17 04:00:00,23.2,21.2,30.09,NW,311,0.0,0.0,92,0.00,,,0.00,VWS V14.01,2013-12-17 10:00:00,
2013-12-17 04:03:00,23.2,21.2,30.09,NW,311,0.0,0.0,92,0.00,,,0.00,VWS V14.01,2013-12-17 10:03:00,
2013-12-17 04:05:00,23.4,21.4,30.09,NW,311,0.0,0.0,92,0.00,,,0.00,VWS V14.01,2013-12-17 10:05:00,
2013-12-17 04:08:00,23.4,21.4,30.09,NW,311,0.0,0.0,92,0.00,,,0.00,VWS V14.01,2013-12-17 10:08:00,
2013-12-17 04:09:00,23.4,21.4,30.09,NW,311,0.0,0.0,92,0.00,,,0.00,VWS V14.01,2013-12-17 10:09:00,
2013-12-17 04:10:00,23.4,21.4,30.09,NW,311,0.0,0.0,92,0.00,,,0.00,VWS V14.01,2013-12-17 10:10:00,
2013-12-17 04:13:00,23.4,21.4,30.09,NW,311,0.0,0.0,92,0.00,,,0.00,VWS V14.01,2013-12-17 10:13:00,
2013-12-17 04:14:00,23.4,21.4,30.09,NW,311,0.0,0.0,92,0.00,,,0.00,VWS V14.01,2013-12-17 10:14:00,
2013-12-17 04:15:00,23.4,21.4,30.10,NW,311,0.0,0.0,92,0.00,,,0.00,VWS V14.01,2013-12-17 10:15:00,
2013-12-17 04:18:00,23.4,21.4,30.10,NW,311,0.0,0.0,92,0.00,,,0.00,VWS V14.01,2013-12-17 10:18:00,
2013-12-17 04:19:00,23.4,21.4,30.10,NW,311,0.0,0.0,92,0.00,,,0.00,VWS V14.01,2013-12-17 10:19:00,
2013-12-17 04:20:00,23.4,21.4,30.10,NW,311,0.0,0.0,92,0.00,,,0.00,VWS V14.01,2013-12-17 10:20:00,
2013-12-17 04:23:00,23.4,21.4,30.10,NW,311,0.0,0.0,92,0.00,,,0.00,VWS V14.01,2013-12-17 10:23:00,
2013-12-17 04:24:00,23.4,21.4,30.10,NW,311,0.0,0.0,92,0.00,,,0.00,VWS V14.01,2013-12-17 10:24:00,
2013-12-17 04:25:00,23.2,21.2,30.10,NW,311,0.0,0.0,92,0.00,,,0.00,VWS V14.01,2013-12-17 10:25:00,
2013-12-17 04:29:00,23.2,21.2,30.10,NW,311,0.0,0.0,92,0.00,,,0.00,VWS V14.01,2013-12-17 10:29:00,
2013-12-17 04:30:00,23.2,21.2,30.10,NW,311,0.0,0.0,92,0.00,,,0.00,VWS V14.01,2013-12-17 10:30:00,
2013-12-17 04:34:00,23.4,21.4,30.10,NW,311,0.0,0.0,92,0.00,,,0.00,VWS V14.01,2013-12-17 10:34:00,
2013-12-17 04:35:00,23.4,21.4,30.10,NW,311,0.0,0.0,92,0.00,,,0.00,VWS V14.01,2013-12-17 10:35:00,
2013-12-17 04:39:00,23.4,21.4,30.10,NW,311,0.0,0.0,92,0.00,,,0.00,VWS V14.01,2013-12-17 10:39:00,
2013-12-17 04:40:00,23.5,21.5,30.10,NW,311,0.0,0.0,92,0.00,,,0.00,VWS V14.01,2013-12-17 10:40:00,
2013-12-17 04:41:00,23.5,21.5,30.10,NW,311,0.0,0.0,92,0.00,,,0.00,VWS V14.01,2013-12-17 10:41:00,
2013-12-17 04:44:00,23.5,21.5,30.10,NW,311,0.0,0.0,92,0.00,,,0.00,VWS V14.01,2013-12-17 10:44:00,
2013-12-17 04:45:00,23.4,21.4,30.10,NW,311,0.0,0.0,92,0.00,,,0.00,VWS V14.01,2013-12-17 10:45:00,
2013-12-17 04:46:00,23.4,21.4,30.10,NW,311,0.0,0.0,92,0.00,,,0.00,VWS V14.01,2013-12-17 10:46:00,
2013-12-17 04:49:00,23.4,21.4,30.10,NW,311,0.0,0.0,92,0.00,,,0.00,VWS V14.01,2013-12-17 10:49:00,
2013-12-17 04:50:00,23.4,21.4,30.10,NW,311,0.0,0.0,92,0.00,,,0.00,VWS V14.01,2013-12-17 10:50:00,
2013-12-17 04:52:00,23.5,21.5,30.10,NW,311,0.0,0.0,92,0.00,,,0.00,VWS V14.01,2013-12-17 10:52:00,
2013-12-17 04:54:00,23.5,21.5,30.10,NW,311,0.0,0.0,92,0.00,,,0.00,VWS V14.01,2013-12-17 10:54:00,
2013-12-17 04:55:00,23.5,21.5,30.10,NW,311,0.0,0.0,92,0.00,,,0.00,VWS V14.01,2013-12-17 10:55:00,
2013-12-17 04:57:00,23.5,21.5,30.10,NW,311,0.0,0.0,92,0.00,,,0.00,VWS V14.01,2013-12-17 10:57:00,
2013-12-17 05:00:00,23.4,21.4,30.11,NW,311,0.0,0.0,92,0.00,,,0.00,VWS V14.01,2013-12-17 11:00:00,
2013-12-17 05:01:00,23.4,21.4,30.11,NW,311,0.0,0.0,92,0.00,,,0.00,VWS V14.01,2013-12-17 11:01:00,
2013-12-17 05:03:00,23.4,21.4,30.11,NW,311,0.0,0.0,92,0.00,,,0.00,VWS V14.01,2013-12-17 11:03:00,
2013-12-17 05:05:00,23.4,21.4,30.11,NW,311,0.0,0.0,92,0.00,,,0.00,VWS V14.01,2013-12-17 11:05:00,
2013-12-17 05:06:00,23.4,21.4,30.11,NW,311,0.0,0.0,92,0.00,,,0.00,VWS V14.01,2013-12-17 11:06:00,
2013-12-17 05:07:00,23.4,21.4,30.11,NW,311,0.0,0.0,92,0.00,,,0.00,VWS V14.01,2013-12-17 11:07:00,
2013-12-17 05:08:00,23.4,21.4,30.11,NW,311,0.0,0.0,92,0.00,,,0.00,VWS V14.01,2013-12-17 11:08:00,
2013-12-17 05:10:00,23.4,21.4,30.11,NW,311,0.0,0.0,92,0.00,,,0.00,VWS V14.01,2013-12-17 11:10:00,
2013-12-17 05:11:00,23.4,21.4,30.11,NW,311,0.0,0.0,92,0.00,,,0.00,VWS V14.01,2013-12-17 11:11:00,
2013-12-17 05:12:00,23.4,21.4,30.11,NW,311,0.0,0.0,92,0.00,,,0.00,VWS V14.01,2013-12-17 11:12:00,
2013-12-17 05:13:00,23.4,21.4,30.11,NW,311,0.0,0.0,92,0.00,,,0.00,VWS V14.01,2013-12-17 11:13:00,
2013-12-17 05:15:00,23.4,21.4,30.12,NW,311,0.0,0.0,92,0.00,,,0.00,VWS V14.01,2013-12-17 11:15:00,
2013-12-17 05:16:00,23.4,21.4,30.12,NW,311,0.0,0.0,92,0.00,,,0.00,VWS V14.01,2013-12-17 11:16:00,
2013-12-17 05:17:00,23.2,21.2,30.12,NW,311,0.0,0.0,92,0.00,,,0.00,VWS V14.01,2013-12-17 11:17:00,
2013-12-17 05:18:00,23.2,21.2,30.12,NW,311,0.0,0.0,92,0.00,,,0.00,VWS V14.01,2013-12-17 11:18:00,
2013-12-17 05:20:00,23.2,21.2,30.12,NW,311,0.0,0.0,92,0.00,,,0.00,VWS V14.01,2013-12-17 11:20:00,
2013-12-17 05:21:00,23.2,21.2,30.12,NW,311,0.0,0.0,92,0.00,,,0.00,VWS V14.01,2013-12-17 11:21:00,
2013-12-17 05:22:00,23.2,21.2,30.12,NW,311,0.0,0.0,92,0.00,,,0.00,VWS V14.01,2013-12-17 11:22:00,
2013-12-17 05:23:00,23.2,21.2,30.12,NW,311,0.0,0.0,92,0.00,,,0.00,VWS V14.01,2013-12-17 11:23:00,
2013-12-17 05:25:00,23.1,21.1,30.12,NW,311,0.0,0.0,92,0.00,,,0.00,VWS V14.01,2013-12-17 11:25:00,
2013-12-17 05:29:00,23.1,21.1,30.12,NW,311,0.0,0.0,92,0.00,,,0.00,VWS V14.01,2013-12-17 11:29:00,
2013-12-17 05:30:00,23.1,21.1,30.12,NW,311,0.0,0.0,92,0.00,,,0.00,VWS V14.01,2013-12-17 11:30:00,
2013-12-17 05:34:00,23.2,21.2,30.12,NW,311,0.0,0.0,92,0.00,,,0.00,VWS V14.01,2013-12-17 11:34:00,
2013-12-17 05:35:00,23.2,21.2,30.12,NW,311,0.0,0.0,92,0.00,,,0.00,VWS V14.01,2013-12-17 11:35:00,
2013-12-17 05:39:00,23.2,21.2,30.12,NW,311,0.0,0.0,92,0.00,,,0.00,VWS V14.01,2013-12-17 11:39:00,
2013-12-17 05:40:00,23.2,21.2,30.12,NW,311,0.0,0.0,92,0.00,,,0.00,VWS V14.01,2013-12-17 11:40:00,
2013-12-17 05:45:00,23.2,21.2,30.12,NW,311,0.0,0.0,92,0.00,,,0.00,VWS V14.01,2013-12-17 11:45:00,
2013-12-17 06:00:00,23.2,21.2,30.12,NW,311,0.0,0.0,92,0.00,,,0.00,VWS V14.01,2013-12-17 12:00:00,
2013-12-17 06:11:00,23.2,21.2,30.12,NW,311,0.0,0.0,92,0.00,,,0.00,VWS V14.01,2013-12-17 12:11:00,
2013-12-17 06:16:00,23.2,21.2,30.12,NW,311,0.0,0.0,92,0.00,,,0.00,VWS V14.01,2013-12-17 12:16:00,
2013-12-17 06:17:00,23.2,21.2,30.12,NW,311,0.0,0.0,92,0.00,,,0.00,VWS V14.01,2013-12-17 12:17:00,
2013-12-17 06:18:00,23.2,21.2,30.12,NW,311,0.0,0.0,92,0.00,,,0.00,VWS V14.01,2013-12-17 12:18:00,
2013-12-17 06:21:00,23.2,21.2,30.12,NW,311,0.0,0.0,92,0.00,,,0.00,VWS V14.01,2013-12-17 12:21:00,
2013-12-17 06:22:00,23.2,21.2,30.12,WNW,284,0.0,1.0,92,0.00,,,0.00,VWS V14.01,2013-12-17 12:22:00,
2013-12-17 06:23:00,23.2,21.2,30.12,WNW,298,0.0,1.0,92,0.00,,,0.00,VWS V14.01,2013-12-17 12:23:00,
2013-12-17 06:26:00,23.2,21.2,30.12,WNW,296,0.0,1.0,92,0.00,,,0.00,VWS V14.01,2013-12-17 12:26:00,
2013-12-17 06:27:00,23.4,21.4,30.12,WNW,296,0.0,1.0,92,0.00,,,0.00,VWS V14.01,2013-12-17 12:27:00,
2013-12-17 06:29:00,23.4,21.4,30.12,NW,317,0.0,3.0,92,0.00,,,0.00,VWS V14.01,2013-12-17 12:29:00,
2013-12-17 06:30:00,23.4,21.4,30.12,NW,317,0.0,3.0,92,0.00,,,0.00,VWS V14.01,2013-12-17 12:30:00,
2013-12-17 06:31:00,23.4,21.4,30.12,NW,315,0.0,0.0,92,0.00,,,0.00,VWS V14.01,2013-12-17 12:31:00,
2013-12-17 06:32:00,23.4,21.4,30.12,NW,315,0.0,0.0,92,0.00,,,0.00,VWS V14.01,2013-12-17 12:32:00,
2013-12-17 06:34:00,23.4,21.4,30.12,NW,315,0.0,0.0,92,0.00,,,0.00,VWS V14.01,2013-12-17 12:34:00,
2013-12-17 06:37:00,23.4,21.4,30.12,NW,315,0.0,0.0,92,0.00,,,0.00,VWS V14.01,2013-12-17 12:37:00,
2013-12-17 06:38:00,23.4,21.4,30.12,NW,315,0.0,0.0,92,0.00,,,0.00,VWS V14.01,2013-12-17 12:38:00,
2013-12-17 06:40:00,23.5,21.5,30.12,NW,315,0.0,0.0,92,0.00,,,0.00,VWS V14.01,2013-12-17 12:40:00,
2013-12-17 06:42:00,23.5,21.5,30.12,NW,315,0.0,0.0,92,0.00,,,0.00,VWS V14.01,2013-12-17 12:42:00,
2013-12-17 06:43:00,23.5,21.5,30.12,NW,315,0.0,0.0,92,0.00,,,0.00,VWS V14.01,2013-12-17 12:43:00,
2013-12-17 06:45:00,23.5,21.5,30.12,NW,315,0.0,0.0,92,0.00,,,0.00,VWS V14.01,2013-12-17 12:45:00,
2013-12-17 06:47:00,23.7,21.7,30.12,NW,315,0.0,0.0,92,0.00,,,0.00,VWS V14.01,2013-12-17 12:47:00,
2013-12-17 06:48:00,23.7,21.7,30.12,NW,315,0.0,0.0,92,0.00,,,0.00,VWS V14.01,2013-12-17 12:48:00,
2013-12-17 06:50:00,23.7,21.7,30.12,NW,315,0.0,0.0,92,0.00,,,0.00,VWS V14.01,2013-12-17 12:50:00,
2013-12-17 06:53:00,23.5,21.5,30.12,NW,315,0.0,0.0,92,0.00,,,0.00,VWS V14.01,2013-12-17 12:53:00,
2013-12-17 06:54:00,23.5,21.5,30.12,NW,315,0.0,0.0,92,0.00,,,0.00,VWS V14.01,2013-12-17 12:54:00,
2013-12-17 06:56:00,23.5,21.5,30.12,NW,315,0.0,0.0,92,0.00,,,0.00,VWS V14.01,2013-12-17 12:56:00,
2013-12-17 06:58:00,23.5,21.5,30.12,NW,315,0.0,0.0,92,0.00,,,0.00,VWS V14.01,2013-12-17 12:58:00,
2013-12-17 06:59:00,23.5,21.5,30.12,NW,315,0.0,0.0,92,0.00,,,0.00,VWS V14.01,2013-12-17 12:59:00,
2013-12-17 07:00:00,23.5,21.5,30.12,NW,306,0.0,0.0,92,0.00,,,0.00,VWS V14.01,2013-12-17 13:00:00,
2013-12-17 07:01:00,23.5,21.5,30.12,NW,306,0.0,0.0,92,0.00,,,0.00,VWS V14.01,2013-12-17 13:01:00,
2013-12-17 07:03:00,23.5,21.5,30.12,West,271,0.0,0.0,92,0.00,,,0.00,VWS V14.01,2013-12-17 13:03:00,
2013-12-17 07:04:00,23.5,21.5,30.12,West,271,0.0,0.0,92,0.00,,,0.00,VWS V14.01,2013-12-17 13:04:00,
2013-12-17 07:05:00,23.5,21.5,30.12,West,271,0.0,0.0,92,0.00,,,0.00,VWS V14.01,2013-12-17 13:05:00,
2013-12-17 07:06:00,23.5,21.5,30.12,West,275,0.0,0.0,92,0.00,,,0.00,VWS V14.01,2013-12-17 13:06:00,
2013-12-17 07:09:00,23.5,21.5,30.12,West,275,0.0,0.0,92,0.00,,,0.00,VWS V14.01,2013-12-17 13:09:00,
2013-12-17 07:10:00,23.5,21.5,30.12,West,261,0.0,2.0,92,0.00,,,0.00,VWS V14.01,2013-12-17 13:10:00,
2013-12-17 07:11:00,23.5,21.5,30.12,WSW,254,0.0,2.0,92,0.00,,,0.00,VWS V14.01,2013-12-17 13:11:00,
2013-12-17 07:14:00,23.7,21.7,30.12,WSW,254,0.0,2.0,92,0.00,,,0.00,VWS V14.01,2013-12-17 13:14:00,
2013-12-17 07:15:00,23.7,21.7,30.12,WSW,254,0.0,2.0,92,0.00,,,0.00,VWS V14.01,2013-12-17 13:15:00,
2013-12-17 07:17:00,23.8,21.8,30.12,WSW,254,0.0,2.0,92,0.00,,,0.00,VWS V14.01,2013-12-17 13:17:00,
2013-12-17 07:19:00,23.7,21.7,30.12,WSW,253,0.0,2.0,92,0.00,,,0.00,VWS V14.01,2013-12-17 13:19:00,
2013-12-17 07:20:00,23.7,21.7,30.12,WSW,253,0.0,2.0,92,0.00,,,0.00,VWS V14.01,2013-12-17 13:20:00,
2013-12-17 07:22:00,23.7,21.7,30.12,WSW,254,0.0,2.0,92,0.00,,,0.00,VWS V14.01,2013-12-17 13:22:00,
2013-12-17 07:25:00,23.7,21.7,30.12,WSW,254,0.0,2.0,92,0.00,,,0.00,VWS V14.01,2013-12-17 13:25:00,
2013-12-17 07:26:00,23.7,21.7,30.12,WSW,254,0.0,2.0,92,0.00,,,0.00,VWS V14.01,2013-12-17 13:26:00,
2013-12-17 07:27:00,23.7,21.7,30.12,WSW,254,0.0,2.0,92,0.00,,,0.00,VWS V14.01,2013-12-17 13:27:00,
2013-12-17 07:30:00,23.7,21.7,30.12,WSW,254,0.0,2.0,92,0.00,,,0.00,VWS V14.01,2013-12-17 13:30:00,
2013-12-17 07:31:00,23.7,21.7,30.12,WSW,254,0.0,0.0,92,0.00,,,0.00,VWS V14.01,2013-12-17 13:31:00,
2013-12-17 07:32:00,23.7,21.7,30.12,WSW,254,0.0,0.0,92,0.00,,,0.00,VWS V14.01,2013-12-17 13:32:00,
2013-12-17 07:35:00,23.7,21.7,30.12,WSW,256,0.0,0.0,92,0.00,,,0.00,VWS V14.01,2013-12-17 13:35:00,
2013-12-17 07:36:00,23.7,21.7,30.12,WSW,257,0.0,0.0,92,0.00,,,0.00,VWS V14.01,2013-12-17 13:36:00,
2013-12-17 07:37:00,23.7,21.7,30.12,WSW,257,0.0,0.0,92,0.00,,,0.00,VWS V14.01,2013-12-17 13:37:00,
2013-12-17 07:40:00,23.7,21.7,30.12,WSW,257,0.0,0.0,92,0.00,,,0.00,VWS V14.01,2013-12-17 13:40:00,
2013-12-17 07:41:00,23.7,21.7,30.12,WSW,257,0.0,0.0,92,0.00,,,0.00,VWS V14.01,2013-12-17 13:41:00,
2013-12-17 07:42:00,23.7,21.7,30.12,WSW,257,0.0,0.0,92,0.00,,,0.00,VWS V14.01,2013-12-17 13:42:00,
2013-12-17 07:45:00,23.7,21.7,30.13,WSW,257,0.0,0.0,92,0.00,,,0.00,VWS V14.01,2013-12-17 13:45:00,
2013-12-17 07:46:00,23.7,21.7,30.13,WSW,257,0.0,0.0,92,0.00,,,0.00,VWS V14.01,2013-12-17 13:46:00,
2013-12-17 07:48:00,23.7,21.7,30.13,WSW,257,0.0,0.0,92,0.00,,,0.00,VWS V14.01,2013-12-17 13:48:00,
2013-12-17 07:50:00,23.7,21.7,30.13,WSW,258,0.0,2.0,92,0.00,,,0.00,VWS V14.01,2013-12-17 13:50:00,
2013-12-17 07:51:00,23.7,21.7,30.13,WSW,257,0.0,2.0,92,0.00,,,0.00,VWS V14.01,2013-12-17 13:51:00,
2013-12-17 07:52:00,23.7,21.7,30.13,West,259,0.0,2.0,92,0.00,,,0.00,VWS V14.01,2013-12-17 13:52:00,
2013-12-17 07:53:00,23.7,21.7,30.13,West,265,0.0,2.0,92,0.00,,,0.00,VWS V14.01,2013-12-17 13:53:00,
2013-12-17 07:56:00,23.8,21.8,30.13,West,270,0.0,2.0,92,0.00,,,0.00,VWS V14.01,2013-12-17 13:56:00,
2013-12-17 07:57:00,23.8,21.8,30.13,West,273,0.0,2.0,92,0.00,,,0.00,VWS V14.01,2013-12-17 13:57:00,
2013-12-17 07:58:00,23.8,21.8,30.13,West,274,0.0,2.0,92,0.00,,,0.00,VWS V14.01,2013-12-17 13:58:00,
2013-12-17 08:00:00,23.8,21.8,30.13,West,274,0.0,2.0,92,0.00,,,0.00,VWS V14.01,2013-12-17 14:00:00,
2013-12-17 08:01:00,23.8,21.8,30.13,West,274,0.0,0.0,92,0.00,,,0.00,VWS V14.01,2013-12-17 14:01:00,
2013-12-17 08:02:00,23.8,21.8,30.13,West,274,0.0,0.0,92,0.00,,,0.00,VWS V14.01,2013-12-17 14:02:00,
2013-12-17 08:04:00,23.8,21.8,30.13,West,274,0.0,0.0,92,0.00,,,0.00,VWS V14.01,2013-12-17 14:04:00,
2013-12-17 08:06:00,23.8,21.8,30.13,WNW,284,0.0,0.0,92,0.00,,,0.00,VWS V14.01,2013-12-17 14:06:00,
2013-12-17 08:07:00,23.8,21.8,30.13,WNW,296,0.0,0.0,92,0.00,,,0.00,VWS V14.01,2013-12-17 14:07:00,
2013-12-17 08:09:00,23.8,21.8,30.13,WNW,296,0.0,0.0,92,0.00,,,0.00,VWS V14.01,2013-12-17 14:09:00,
2013-12-17 08:11:00,23.8,21.8,30.13,WNW,284,1.0,2.0,92,0.00,,,0.00,VWS V14.01,2013-12-17 14:11:00,
2013-12-17 08:12:00,23.8,21.8,30.13,NW,316,0.0,2.0,92,0.00,,,0.00,VWS V14.01,2013-12-17 14:12:00,
2013-12-17 08:13:00,23.8,21.8,30.13,NW,316,0.0,2.0,92,0.00,,,0.00,VWS V14.01,2013-12-17 14:13:00,
2013-12-17 08:14:00,23.8,21.8,30.13,NW,316,0.0,2.0,92,0.00,,,0.00,VWS V14.01,2013-12-17 14:14:00,
2013-12-17 08:16:00,24.0,22.0,30.14,NW,309,0.0,2.0,92,0.00,,,0.00,VWS V14.01,2013-12-17 14:16:00,
2013-12-17 08:17:00,24.0,22.0,30.14,WNW,302,0.0,2.0,92,0.00,,,0.00,VWS V14.01,2013-12-17 14:17:00,
2013-12-17 08:19:00,24.0,22.0,30.14,WNW,300,0.0,2.0,92,0.00,,,0.00,VWS V14.01,2013-12-17 14:19:00,
2013-12-17 08:22:00,24.0,22.0,30.14,WNW,297,0.0,2.0,92,0.00,,,0.00,VWS V14.01,2013-12-17 14:22:00,
2013-12-17 08:24:00,24.0,22.0,30.14,WNW,302,0.0,2.0,92,0.00,,,0.00,VWS V14.01,2013-12-17 14:24:00,
2013-12-17 08:27:00,24.1,22.1,30.14,WNW,302,0.0,2.0,92,0.00,,,0.00,VWS V14.01,2013-12-17 14:27:00,
2013-12-17 08:29:00,24.1,22.1,30.14,WNW,293,0.0,2.0,92,0.00,,,0.00,VWS V14.01,2013-12-17 14:29:00,
2013-12-17 08:30:00,24.1,22.1,30.14,WNW,293,0.0,2.0,92,0.00,,,0.00,VWS V14.01,2013-12-17 14:30:00,
2013-12-17 08:32:00,24.1,22.1,30.14,WNW,293,0.0,0.0,92,0.00,,,0.00,VWS V14.01,2013-12-17 14:32:00,
2013-12-17 08:35:00,24.1,22.1,30.14,WSW,243,0.0,0.0,92,0.00,,,0.00,VWS V14.01,2013-12-17 14:35:00,
2013-12-17 08:37:00,24.3,22.3,30.14,WSW,242,0.0,0.0,92,0.00,,,0.00,VWS V14.01,2013-12-17 14:37:00,
2013-12-17 08:38:00,24.3,22.3,30.14,WSW,243,0.0,0.0,92,0.00,,,0.00,VWS V14.01,2013-12-17 14:38:00,
2013-12-17 08:40:00,24.4,22.4,30.14,WSW,244,0.0,0.0,92,0.00,,,0.00,VWS V14.01,2013-12-17 14:40:00,
2013-12-17 08:42:00,24.3,22.3,30.14,WSW,244,0.0,0.0,92,0.00,,,0.00,VWS V14.01,2013-12-17 14:42:00,
2013-12-17 08:43:00,24.3,22.3,30.14,WSW,246,0.0,0.0,92,0.00,,,0.00,VWS V14.01,2013-12-17 14:43:00,
2013-12-17 08:45:00,24.3,22.3,30.15,WSW,246,0.0,0.0,92,0.00,,,0.00,VWS V14.01,2013-12-17 14:45:00,
2013-12-17 08:46:00,24.3,22.3,30.15,WSW,246,0.0,0.0,92,0.00,,,0.00,VWS V14.01,2013-12-17 14:46:00,
2013-12-17 08:47:00,24.3,22.3,30.15,WSW,246,0.0,0.0,92,0.00,,,0.00,VWS V14.01,2013-12-17 14:47:00,
2013-12-17 08:48:00,24.3,22.3,30.15,WSW,246,0.0,0.0,92,0.00,,,0.00,VWS V14.01,2013-12-17 14:48:00,
2013-12-17 08:51:00,24.4,22.4,30.15,WSW,246,0.0,0.0,92,0.00,,,0.00,VWS V14.01,2013-12-17 14:51:00,
2013-12-17 08:52:00,24.4,22.4,30.15,WSW,246,0.0,0.0,92,0.00,,,0.00,VWS V14.01,2013-12-17 14:52:00,
2013-12-17 08:53:00,24.4,22.4,30.15,WSW,246,0.0,0.0,92,0.00,,,0.00,VWS V14.01,2013-12-17 14:53:00,
2013-12-17 08:56:00,24.4,22.4,30.15,WSW,246,0.0,0.0,92,0.00,,,0.00,VWS V14.01,2013-12-17 14:56:00,
2013-12-17 08:57:00,24.4,22.4,30.15,WSW,246,0.0,0.0,92,0.00,,,0.00,VWS V14.01,2013-12-17 14:57:00,
2013-12-17 08:58:00,24.4,22.4,30.15,WSW,246,0.0,0.0,92,0.00,,,0.00,VWS V14.01,2013-12-17 14:58:00,
2013-12-17 09:00:00,24.4,22.4,30.15,WSW,246,0.0,0.0,92,0.00,,,0.00,VWS V14.01,2013-12-17 15:00:00,
2013-12-17 09:01:00,24.4,22.4,30.15,WSW,248,0.0,0.0,92,0.00,,,0.00,VWS V14.01,2013-12-17 15:01:00,
2013-12-17 09:04:00,24.4,22.4,30.15,West,268,0.0,3.0,92,0.00,,,0.00,VWS V14.01,2013-12-17 15:04:00,
2013-12-17 09:06:00,24.4,22.4,30.15,West,268,0.0,3.0,92,0.00,,,0.00,VWS V14.01,2013-12-17 15:06:00,
2013-12-17 09:09:00,24.4,22.4,30.15,SW,222,0.0,3.0,92,0.00,,,0.00,VWS V14.01,2013-12-17 15:09:00,
2013-12-17 09:10:00,24.3,22.3,30.15,SW,221,0.0,3.0,92,0.00,,,0.00,VWS V14.01,2013-12-17 15:10:00,
2013-12-17 09:11:00,24.3,22.3,30.15,SW,222,0.0,3.0,92,0.00,,,0.00,VWS V14.01,2013-12-17 15:11:00,
2013-12-17 09:14:00,24.1,22.1,30.15,SW,222,0.0,3.0,92,0.00,,,0.00,VWS V14.01,2013-12-17 15:14:00,
2013-12-17 09:15:00,24.1,22.1,30.15,SW,222,0.0,3.0,92,0.00,,,0.00,VWS V14.01,2013-12-17 15:15:00,
2013-12-17 09:16:00,24.1,22.1,30.15,SW,222,0.0,3.0,92,0.00,,,0.00,VWS V14.01,2013-12-17 15:16:00,
2013-12-17 09:20:00,24.3,22.3,30.15,SW,223,0.0,3.0,92,0.00,,,0.00,VWS V14.01,2013-12-17 15:20:00,
2013-12-17 09:21:00,24.3,22.3,30.15,SW,224,0.0,3.0,92,0.00,,,0.00,VWS V14.01,2013-12-17 15:21:00,
2013-12-17 09:25:00,24.3,22.3,30.15,SW,223,0.0,3.0,92,0.00,,,0.00,VWS V14.01,2013-12-17 15:25:00,
2013-12-17 09:27:00,24.3,22.3,30.15,WSW,238,0.0,3.0,92,0.00,,,0.00,VWS V14.01,2013-12-17 15:27:00,
2013-12-17 09:30:00,24.4,22.4,30.15,WSW,241,0.0,3.0,92,0.00,,,0.00,VWS V14.01,2013-12-17 15:30:00,
2013-12-17 09:31:00,24.6,22.6,30.15,WSW,242,0.0,0.0,92,0.00,,,0.00,VWS V14.01,2013-12-17 15:31:00,
2013-12-17 09:32:00,24.6,22.6,30.15,WSW,242,0.0,0.0,92,0.00,,,0.00,VWS V14.01,2013-12-17 15:32:00,
2013-12-17 09:35:00,24.7,22.7,30.15,WSW,242,0.0,0.0,92,0.00,,,0.00,VWS V14.01,2013-12-17 15:35:00,
2013-12-17 09:36:00,24.7,22.7,30.15,SW,236,0.0,0.0,92,0.00,,,0.00,VWS V14.01,2013-12-17 15:36:00,
2013-12-17 09:37:00,24.7,22.7,30.15,WSW,246,0.0,0.0,92,0.00,,,0.00,VWS V14.01,2013-12-17 15:37:00,
2013-12-17 09:40:00,24.9,22.9,30.15,SSW,205,0.0,4.0,92,0.00,,,0.00,VWS V14.01,2013-12-17 15:40:00,
2013-12-17 09:45:00,24.9,22.9,30.15,SW,215,0.0,4.0,92,0.00,,,0.00,VWS V14.01,2013-12-17 15:45:00,
2013-12-17 10:00:00,25.0,23.0,30.16,SSW,196,0.0,5.0,92,0.00,,,0.00,VWS V14.01,2013-12-17 16:00:00,
2013-12-17 10:30:00,26.6,24.6,30.15,SW,225,3.0,7.0,92,0.00,,,0.00,VWS V14.01,2013-12-17 16:30:00,
2013-12-17 10:40:00,27.5,25.5,30.15,SW,229,2.0,6.0,92,0.00,,,0.00,VWS V14.01,2013-12-17 16:40:00,
2013-12-17 10:41:00,27.5,25.5,30.15,SW,230,0.0,6.0,92,0.00,,,0.00,VWS V14.01,2013-12-17 16:41:00,
2013-12-17 10:45:00,28.0,25.7,30.14,SSW,209,3.0,7.0,91,0.00,,,0.00,VWS V14.01,2013-12-17 16:45:00,
2013-12-17 10:46:00,28.0,25.7,30.14,SSW,202,6.0,7.0,91,0.00,,,0.00,VWS V14.01,2013-12-17 16:46:00,
2013-12-17 12:00:00,33.1,27.0,30.12,WNW,294,5.0,18.0,78,0.02,,OVC037,0.02,VWS V14.01,2013-12-17 18:00:00,
2013-12-17 12:30:00,33.6,28.4,30.11,WNW,293,0.0,11.0,81,0.02,,OVC037,0.04,VWS V14.01,2013-12-17 18:30:00,
2013-12-17 12:47:00,34.6,27.2,30.12,West,276,5.0,11.0,74,0.01,,,0.01,VWS V14.01,2013-12-17 18:47:00,
2013-12-17 12:52:00,33.9,26.8,30.12,WNW,292,3.0,13.0,75,0.02,,,0.02,VWS V14.01,2013-12-17 18:52:00,
2013-12-17 12:53:00,33.9,27.1,30.12,NNW,331,4.0,13.0,76,0.02,,,0.02,VWS V14.01,2013-12-17 18:53:00,
2013-12-17 12:57:00,33.3,26.9,30.12,WNW,292,3.0,18.0,77,0.02,,,0.02,VWS V14.01,2013-12-17 18:57:00,
2013-12-17 12:58:00,33.1,26.7,30.12,WNW,296,7.0,18.0,77,0.02,,,0.02,VWS V14.01,2013-12-17 18:58:00,
2013-12-17 13:00:00,33.1,27.0,30.12,WNW,294,5.0,18.0,78,0.02,,CLR,0.02,VWS V14.01,2013-12-17 19:00:00,
2013-12-17 13:02:00,33.0,27.2,30.12,WNW,299,0.0,7.0,79,0.00,,,0.02,VWS V14.01,2013-12-17 19:02:00,
2013-12-17 13:03:00,33.0,27.2,30.12,NNW,327,1.0,7.0,79,0.00,,,0.02,VWS V14.01,2013-12-17 19:03:00,
2013-12-17 13:04:00,33.0,27.2,30.12,WNW,289,3.0,7.0,79,0.00,,,0.02,VWS V14.01,2013-12-17 19:04:00,
2013-12-17 13:07:00,32.7,27.5,30.12,WNW,300,2.0,9.0,81,0.00,,,0.02,VWS V14.01,2013-12-17 19:07:00,
2013-12-17 13:08:00,32.7,27.5,30.12,WNW,295,4.0,9.0,81,0.00,,,0.02,VWS V14.01,2013-12-17 19:08:00,
2013-12-17 13:09:00,32.7,27.8,30.12,NW,316,6.0,11.0,82,0.00,,,0.02,VWS V14.01,2013-12-17 19:09:00,
2013-12-17 13:10:00,32.7,27.8,30.12,NW,317,2.0,11.0,82,0.00,,,0.02,VWS V14.01,2013-12-17 19:10:00,
2013-12-17 13:12:00,32.7,28.1,30.12,WNW,286,4.0,11.0,83,0.00,,,0.02,VWS V14.01,2013-12-17 19:12:00,
2013-12-17 13:13:00,32.7,28.1,30.12,North,355,5.0,11.0,83,0.00,,,0.02,VWS V14.01,2013-12-17 19:13:00,
2013-12-17 13:14:00,32.7,28.1,30.12,WNW,299,2.0,11.0,83,0.00,,,0.02,VWS V14.01,2013-12-17 19:14:00,
2013-12-17 13:16:00,32.7,28.1,30.11,West,279,2.0,11.0,83,0.00,,,0.02,VWS V14.01,2013-12-17 19:16:00,
2013-12-17 13:18:00,32.8,28.2,30.11,West,274,5.0,11.0,83,0.00,,,0.02,VWS V14.01,2013-12-17 19:18:00,
2013-12-17 13:19:00,32.8,28.2,30.11,WNW,291,9.0,11.0,83,0.00,,,0.02,VWS V14.01,2013-12-17 19:19:00,
2013-12-17 13:20:00,32.8,28.2,30.11,WNW,286,4.0,11.0,83,0.01,,,0.03,VWS V14.01,2013-12-17 19:20:00,
2013-12-17 13:22:00,33.0,28.4,30.11,NW,311,0.0,11.0,83,0.01,,,0.03,VWS V14.01,2013-12-17 19:22:00,
2013-12-17 13:23:00,33.1,28.5,30.11,West,276,0.0,11.0,83,0.01,,,0.03,VWS V14.01,2013-12-17 19:23:00,
2013-12-17 13:24:00,33.3,28.7,30.11,West,278,0.0,11.0,83,0.01,,,0.03,VWS V14.01,2013-12-17 19:24:00,
2013-12-17 13:25:00,33.4,28.8,30.11,WNW,302,0.0,11.0,83,0.01,,,0.03,VWS V14.01,2013-12-17 19:25:00,
2013-12-17 13:27:00,33.4,28.5,30.11,WNW,301,5.0,11.0,82,0.01,,,0.03,VWS V14.01,2013-12-17 19:27:00,
2013-12-17 13:28:00,33.4,28.2,30.11,NW,320,0.0,11.0,81,0.01,,,0.03,VWS V14.01,2013-12-17 19:28:00,
2013-12-17 13:29:00,33.6,28.7,30.11,WNW,296,4.0,11.0,82,0.01,,,0.03,VWS V14.01,2013-12-17 19:29:00,
2013-12-17 13:30:00,33.6,28.4,30.11,WNW,296,1.0,11.0,81,0.02,,,0.04,VWS V14.01,2013-12-17 19:30:00,
2013-12-17 13:31:00,33.6,28.4,30.11,WNW,288,0.0,1.0,81,0.02,,,0.04,VWS V14.01,2013-12-17 19:31:00,
2013-12-17 13:32:00,33.6,28.4,30.11,WNW,296,3.0,6.0,81,0.02,,,0.04,VWS V14.01,2013-12-17 19:32:00,
2013-12-17 13:33:00,33.7,28.5,30.11,West,275,0.0,6.0,81,0.02,,,0.04,VWS V14.01,2013-12-17 19:33:00,
2013-12-17 13:34:00,33.7,28.5,30.11,West,272,0.0,6.0,81,0.02,,,0.04,VWS V14.01,2013-12-17 19:34:00,
2013-12-17 13:35:00,33.9,28.7,30.11,WNW,286,6.0,6.0,81,0.02,,,0.04,VWS V14.01,2013-12-17 19:35:00,
2013-12-17 13:36:00,33.9,28.7,30.11,West,269,6.0,10.0,81,0.02,,,0.04,VWS V14.01,2013-12-17 19:36:00,
2013-12-17 13:37:00,33.9,28.7,30.11,WNW,285,3.0,10.0,81,0.02,,,0.04,VWS V14.01,2013-12-17 19:37:00,
2013-12-17 13:38:00,33.9,28.4,30.11,West,280,5.0,10.0,80,0.02,,,0.04,VWS V14.01,2013-12-17 19:38:00,
2013-12-17 13:39:00,33.9,28.4,30.11,West,273,1.0,10.0,80,0.02,,,0.04,VWS V14.01,2013-12-17 19:39:00,
2013-12-17 13:40:00,34.0,28.5,30.11,NW,315,0.0,10.0,80,0.03,,,0.05,VWS V14.01,2013-12-17 19:40:00,
2013-12-17 13:41:00,34.2,28.7,30.11,NW,314,0.0,10.0,80,0.03,,,0.05,VWS V14.01,2013-12-17 19:41:00,
2013-12-17 13:42:00,34.5,29.0,30.11,WNW,285,3.0,10.0,80,0.03,,,0.05,VWS V14.01,2013-12-17 19:42:00,
2013-12-17 13:43:00,34.5,28.7,30.11,WNW,286,0.0,10.0,79,0.03,,,0.05,VWS V14.01,2013-12-17 19:43:00,
2013-12-17 13:44:00,34.5,28.7,30.11,WNW,296,3.0,10.0,79,0.03,,,0.05,VWS V14.01,2013-12-17 19:44:00,
2013-12-17 13:45:00,34.5,28.7,30.11,WNW,284,4.0,10.0,79,0.03,,,0.05,VWS V14.01,2013-12-17 19:45:00,
2013-12-17 13:46:00,34.5,28.7,30.11,West,267,5.0,10.0,79,0.03,,,0.05,VWS V14.01,2013-12-17 19:46:00,
2013-12-17 13:47:00,34.5,28.7,30.11,NW,321,5.0,10.0,79,0.03,,,0.05,VWS V14.01,2013-12-17 19:47:00,
2013-12-17 13:48:00,34.5,28.7,30.11,WNW,287,4.0,10.0,79,0.03,,,0.05,VWS V14.01,2013-12-17 19:48:00,
2013-12-17 13:49:00,34.6,28.8,30.11,WNW,285,5.0,10.0,79,0.03,,,0.05,VWS V14.01,2013-12-17 19:49:00,
2013-12-17 13:50:00,34.6,28.5,30.11,West,277,5.0,10.0,78,0.04,,,0.06,VWS V14.01,2013-12-17 19:50:00,
2013-12-17 13:51:00,34.5,28.4,30.11,West,277,5.0,10.0,78,0.04,,,0.06,VWS V14.01,2013-12-17 19:51:00,
2013-12-17 13:53:00,34.8,29.0,30.11,WNW,289,4.0,10.0,79,0.04,,,0.06,VWS V14.01,2013-12-17 19:53:00,
2013-12-17 13:54:00,34.8,28.6,30.11,NW,313,0.0,10.0,78,0.04,,,0.06,VWS V14.01,2013-12-17 19:54:00,
2013-12-17 13:55:00,35.1,28.9,30.11,NW,310,0.0,10.0,78,0.04,,,0.06,VWS V14.01,2013-12-17 19:55:00,
2013-12-17 13:56:00,35.2,29.0,30.11,West,269,5.0,10.0,78,0.04,,,0.06,VWS V14.01,2013-12-17 19:56:00,
2013-12-17 13:58:00,35.4,28.9,30.11,West,274,0.0,10.0,77,0.04,,,0.06,VWS V14.01,2013-12-17 19:58:00,
2013-12-17 13:59:00,35.4,28.9,30.10,West,261,0.0,10.0,77,0.05,,,0.07,VWS V14.01,2013-12-17 19:59:00,
2013-12-17 14:00:00,35.5,28.7,30.10,WSW,242,0.0,0.0,76,0.05,,CLR,0.07,VWS V14.01,2013-12-17 20:00:00,
2013-12-17 14:01:00,35.5,28.7,30.10,WSW,242,0.0,0.0,76,0.05,,CLR,0.07,VWS V14.01,2013-12-17 20:01:00,
2013-12-17 14:03:00,35.5,28.7,30.10,WSW,258,4.0,6.0,76,0.05,,CLR,0.07,VWS V14.01,2013-12-17 20:03:00,
2013-12-17 14:04:00,35.7,28.9,30.10,WSW,250,3.0,6.0,76,0.05,,CLR,0.07,VWS V14.01,2013-12-17 20:04:00,
2013-12-17 14:05:00,35.7,28.9,30.10,WNW,289,0.0,6.0,76,0.05,,CLR,0.07,VWS V14.01,2013-12-17 20:05:00,
2013-12-17 14:06:00,35.7,28.9,30.10,WSW,258,0.0,6.0,76,0.05,,CLR,0.07,VWS V14.01,2013-12-17 20:06:00,
2013-12-17 14:08:00,35.7,28.6,30.10,West,267,4.0,8.0,75,0.05,,CLR,0.07,VWS V14.01,2013-12-17 20:08:00,
2013-12-17 14:09:00,35.7,28.6,30.10,West,267,3.0,8.0,75,0.05,,CLR,0.07,VWS V14.01,2013-12-17 20:09:00,
2013-12-17 14:10:00,35.7,28.9,30.10,West,267,3.0,8.0,76,0.05,,CLR,0.07,VWS V14.01,2013-12-17 20:10:00,
2013-12-17 14:11:00,35.8,29.0,30.10,WSW,257,3.0,8.0,76,0.06,,CLR,0.08,VWS V14.01,2013-12-17 20:11:00,
2013-12-17 14:13:00,35.8,28.7,30.10,West,266,4.0,8.0,75,0.06,,CLR,0.08,VWS V14.01,2013-12-17 20:13:00,
2013-12-17 14:14:00,35.8,28.7,30.10,SW,222,5.0,8.0,75,0.06,,CLR,0.08,VWS V14.01,2013-12-17 20:14:00,
2013-12-17 14:15:00,35.8,28.7,30.11,West,265,0.0,9.0,75,0.06,,CLR,0.08,VWS V14.01,2013-12-17 20:15:00,
2013-12-17 14:16:00,35.9,28.8,30.11,WNW,283,0.0,9.0,75,0.06,,CLR,0.08,VWS V14.01,2013-12-17 20:16:00,
2013-12-17 14:18:00,35.9,28.8,30.11,NW,306,0.0,9.0,75,0.06,,CLR,0.08,VWS V14.01,2013-12-17 20:18:00,
2013-12-17 14:19:00,35.9,28.8,30.11,NW,306,0.0,9.0,75,0.06,,CLR,0.08,VWS V14.01,2013-12-17 20:19:00,
2013-12-17 14:20:00,35.9,28.8,30.11,West,265,3.0,9.0,75,0.06,,CLR,0.08,VWS V14.01,2013-12-17 20:20:00,
2013-12-17 14:21:00,35.9,28.8,30.11,WNW,296,0.0,9.0,75,0.06,,CLR,0.08,VWS V14.01,2013-12-17 20:21:00,
2013-12-17 14:22:00,35.9,28.8,30.11,WNW,296,0.0,9.0,75,0.06,,CLR,0.08,VWS V14.01,2013-12-17 20:22:00,
2013-12-17 14:23:00,36.1,29.0,30.11,WSW,242,4.0,9.0,75,0.07,,CLR,0.09,VWS V14.01,2013-12-17 20:23:00,
2013-12-17 14:24:00,36.2,28.7,30.11,WNW,284,3.0,9.0,74,0.07,,CLR,0.09,VWS V14.01,2013-12-17 20:24:00,
2013-12-17 14:25:00,36.2,28.7,30.11,WNW,287,0.0,9.0,74,0.07,,CLR,0.09,VWS V14.01,2013-12-17 20:25:00,
2013-12-17 14:26:00,36.2,28.7,30.11,WNW,284,0.0,9.0,74,0.07,,CLR,0.09,VWS V14.01,2013-12-17 20:26:00,
2013-12-17 14:27:00,36.4,28.9,30.11,West,273,0.0,9.0,74,0.07,,CLR,0.09,VWS V14.01,2013-12-17 20:27:00,
2013-12-17 14:28:00,36.4,28.9,30.11,NW,306,6.0,9.0,74,0.07,,CLR,0.09,VWS V14.01,2013-12-17 20:28:00,
2013-12-17 14:29:00,36.4,28.6,30.11,WNW,290,4.0,9.0,73,0.07,,CLR,0.09,VWS V14.01,2013-12-17 20:29:00,
2013-12-17 14:30:00,36.2,28.4,30.11,West,279,4.0,9.0,73,0.07,,CLR,0.09,VWS V14.01,2013-12-17 20:30:00,
2013-12-17 14:31:00,36.2,28.4,30.11,West,279,1.0,4.0,73,0.05,,CLR,0.09,VWS V14.01,2013-12-17 20:31:00,
2013-12-17 14:32:00,36.2,28.4,30.11,WNW,284,4.0,5.0,73,0.05,,CLR,0.09,VWS V14.01,2013-12-17 20:32:00,
2013-12-17 14:33:00,36.1,28.3,30.11,WNW,284,3.0,5.0,73,0.05,,CLR,0.09,VWS V14.01,2013-12-17 20:33:00,
2013-12-17 14:34:00,36.1,28.3,30.11,West,281,4.0,5.0,73,0.05,,CLR,0.09,VWS V14.01,2013-12-17 20:34:00,
2013-12-17 14:36:00,36.2,28.4,30.11,West,280,0.0,5.0,73,0.05,,CLR,0.09,VWS V14.01,2013-12-17 20:36:00,
2013-12-17 14:37:00,36.4,28.6,30.11,WNW,298,1.0,5.0,73,0.06,,CLR,0.10,VWS V14.01,2013-12-17 20:37:00,
2013-12-17 14:38:00,36.4,28.6,30.11,West,265,0.0,5.0,73,0.06,,CLR,0.10,VWS V14.01,2013-12-17 20:38:00,
2013-12-17 14:39:00,36.5,28.7,30.11,WSW,254,1.0,5.0,73,0.06,,CLR,0.10,VWS V14.01,2013-12-17 20:39:00,
2013-12-17 14:41:00,36.5,28.7,30.11,West,271,0.0,5.0,73,0.06,,CLR,0.10,VWS V14.01,2013-12-17 20:41:00,
2013-12-17 14:42:00,36.5,28.7,30.11,West,259,0.0,5.0,73,0.06,,CLR,0.10,VWS V14.01,2013-12-17 20:42:00,
2013-12-17 14:43:00,36.7,28.5,30.11,SW,225,0.0,5.0,72,0.06,,CLR,0.10,VWS V14.01,2013-12-17 20:43:00,
2013-12-17 14:44:00,36.7,28.5,30.11,SW,224,0.0,5.0,72,0.06,,CLR,0.10,VWS V14.01,2013-12-17 20:44:00,
2013-12-17 14:46:00,36.7,28.5,30.11,WNW,296,6.0,9.0,72,0.06,,CLR,0.10,VWS V14.01,2013-12-17 20:46:00,
2013-12-17 14:47:00,36.5,28.4,30.11,WNW,284,5.0,9.0,72,0.06,,CLR,0.10,VWS V14.01,2013-12-17 20:47:00,
2013-12-17 14:48:00,36.5,28.4,30.11,WNW,286,0.0,9.0,72,0.06,,CLR,0.10,VWS V14.01,2013-12-17 20:48:00,
2013-12-17 14:49:00,36.5,28.4,30.11,WNW,286,0.0,9.0,72,0.06,,CLR,0.10,VWS V14.01,2013-12-17 20:49:00,
2013-12-17 14:51:00,36.7,28.5,30.11,WNW,290,1.0,9.0,72,0.07,,CLR,0.11,VWS V14.01,2013-12-17 20:51:00,
2013-12-17 14:52:00,36.7,28.5,30.11,WNW,290,1.0,9.0,72,0.07,,CLR,0.11,VWS V14.01,2013-12-17 20:52:00,
2013-12-17 14:54:00,36.8,28.6,30.11,WSW,248,0.0,9.0,72,0.07,,CLR,0.11,VWS V14.01,2013-12-17 20:54:00,
2013-12-17 14:55:00,36.8,28.6,30.11,WNW,286,2.0,9.0,72,0.07,,CLR,0.11,VWS V14.01,2013-12-17 20:55:00,
2013-12-17 14:56:00,36.8,28.6,30.11,WNW,287,0.0,9.0,72,0.07,,CLR,0.11,VWS V14.01,2013-12-17 20:56:00,
2013-12-17 14:57:00,36.8,28.3,30.11,West,278,0.0,9.0,71,0.07,,CLR,0.11,VWS V14.01,2013-12-17 20:57:00,
2013-12-17 14:58:00,36.8,28.3,30.11,West,278,0.0,9.0,71,0.07,,CLR,0.11,VWS V14.01,2013-12-17 20:58:00,
2013-12-17 14:59:00,36.8,28.3,30.12,West,269,6.0,9.0,71,0.07,,CLR,0.11,VWS V14.01,2013-12-17 20:59:00,
2013-12-17 15:00:00,36.8,28.3,30.12,West,280,4.0,9.0,71,0.07,,CLR,0.11,VWS V14.01,2013-12-17 21:00:00,
2013-12-17 15:01:00,36.8,28.3,30.12,West,271,3.0,8.0,71,0.04,,CLR,0.11,VWS V14.01,2013-12-17 21:01:00,
2013-12-17 15:03:00,36.8,28.3,30.12,NW,324,0.0,8.0,71,0.04,,CLR,0.11,VWS V14.01,2013-12-17 21:03:00,
2013-12-17 15:04:00,36.8,28.3,30.12,West,278,0.0,8.0,71,0.05,,CLR,0.12,VWS V14.01,2013-12-17 21:04:00,
2013-12-17 15:05:00,36.8,28.3,30.12,WNW,282,0.0,8.0,71,0.05,,CLR,0.12,VWS V14.01,2013-12-17 21:05:00,
2013-12-17 15:06:00,36.8,28.3,30.12,West,268,0.0,8.0,71,0.05,,CLR,0.12,VWS V14.01,2013-12-17 21:06:00,
2013-12-17 15:08:00,36.8,28.3,30.12,West,272,0.0,8.0,71,0.05,,CLR,0.12,VWS V14.01,2013-12-17 21:08:00,
2013-12-17 15:09:00,36.8,28.3,30.12,West,264,0.0,8.0,71,0.05,,CLR,0.12,VWS V14.01,2013-12-17 21:09:00,
2013-12-17 15:10:00,36.8,28.0,30.12,WNW,292,5.0,8.0,70,0.05,,CLR,0.12,VWS V14.01,2013-12-17 21:10:00,
2013-12-17 15:11:00,36.8,28.0,30.12,SW,225,0.0,8.0,70,0.05,,CLR,0.12,VWS V14.01,2013-12-17 21:11:00,
2013-12-17 15:13:00,36.8,28.0,30.12,West,274,0.0,8.0,70,0.05,,CLR,0.12,VWS V14.01,2013-12-17 21:13:00,
2013-12-17 15:14:00,36.8,28.0,30.12,West,278,0.0,8.0,70,0.05,,CLR,0.12,VWS V14.01,2013-12-17 21:14:00,
2013-12-17 15:15:00,36.7,27.9,30.12,WNW,284,5.0,10.0,70,0.05,,SCT080,0.12,VWS V14.01,2013-12-17 21:15:00,
2013-12-17 15:16:00,36.7,27.9,30.12,West,279,3.0,10.0,70,0.05,,SCT080,0.12,VWS V14.01,2013-12-17 21:16:00,
2013-12-17 15:17:00,36.7,27.9,30.12,West,279,0.0,10.0,70,0.05,,SCT080,0.12,VWS V14.01,2013-12-17 21:17:00,
2013-12-17 15:18:00,36.7,27.9,30.12,WNW,286,2.0,10.0,70,0.05,,SCT080,0.12,VWS V14.01,2013-12-17 21:18:00,
2013-12-17 15:19:00,36.7,27.9,30.12,WNW,286,2.0,10.0,70,0.05,,SCT080,0.12,VWS V14.01,2013-12-17 21:19:00,
2013-12-17 15:20:00,36.7,27.9,30.12,WNW,287,2.0,10.0,70,0.05,,SCT080,0.12,VWS V14.01,2013-12-17 21:20:00,
2013-12-17 15:21:00,36.7,27.9,30.12,WNW,289,2.0,10.0,70,0.05,,SCT080,0.12,VWS V14.01,2013-12-17 21:21:00,
2013-12-17 15:22:00,36.7,27.9,30.12,WNW,282,0.0,10.0,70,0.05,,SCT080,0.12,VWS V14.01,2013-12-17 21:22:00,
2013-12-17 15:24:00,36.7,27.9,30.12,WNW,287,0.0,10.0,70,0.05,,SCT080,0.12,VWS V14.01,2013-12-17 21:24:00,
2013-12-17 15:25:00,36.7,27.9,30.12,West,281,1.0,10.0,70,0.05,,SCT080,0.12,VWS V14.01,2013-12-17 21:25:00,
2013-12-17 15:26:00,36.7,27.9,30.12,NW,309,1.0,10.0,70,0.06,,SCT080,0.13,VWS V14.01,2013-12-17 21:26:00,
2013-12-17 15:28:00,36.5,27.3,30.12,WNW,294,0.0,10.0,69,0.06,,SCT080,0.13,VWS V14.01,2013-12-17 21:28:00,
2013-12-17 15:29:00,36.5,27.3,30.12,WNW,293,0.0,10.0,69,0.06,,SCT080,0.13,VWS V14.01,2013-12-17 21:29:00,
2013-12-17 15:30:00,36.5,27.3,30.12,WNW,290,0.0,0.0,69,0.04,,SCT080,0.13,VWS V14.01,2013-12-17 21:30:00,
2013-12-17 15:31:00,36.5,27.3,30.12,WNW,290,0.0,0.0,69,0.04,,SCT080,0.13,VWS V14.01,2013-12-17 21:31:00,
2013-12-17 15:33:00,36.7,27.5,30.12,West,266,0.0,1.0,69,0.04,,SCT080,0.13,VWS V14.01,2013-12-17 21:33:00,
2013-12-17 15:34:00,36.7,27.5,30.12,West,265,5.0,6.0,69,0.04,,SCT080,0.13,VWS V14.01,2013-12-17 21:34:00,
2013-12-17 15:36:00,36.5,27.3,30.12,West,275,4.0,6.0,69,0.04,,SCT080,0.13,VWS V14.01,2013-12-17 21:36:00,
2013-12-17 15:37:00,36.5,27.3,30.12,WNW,288,3.0,6.0,69,0.04,,SCT080,0.13,VWS V14.01,2013-12-17 21:37:00,
2013-12-17 15:38:00,36.5,27.3,30.12,WNW,286,0.0,6.0,69,0.04,,SCT080,0.13,VWS V14.01,2013-12-17 21:38:00,
2013-12-17 15:39:00,36.5,27.3,30.12,WNW,286,0.0,6.0,69,0.04,,SCT080,0.13,VWS V14.01,2013-12-17 21:39:00,
2013-12-17 15:40:00,36.5,27.3,30.12,WNW,286,0.0,6.0,69,0.04,,SCT080,0.13,VWS V14.01,2013-12-17 21:40:00,
2013-12-17 15:41:00,36.5,27.3,30.12,WNW,286,2.0,6.0,69,0.04,,SCT080,0.13,VWS V14.01,2013-12-17 21:41:00,
2013-12-17 15:42:00,36.5,27.3,30.12,West,279,5.0,6.0,69,0.04,,SCT080,0.13,VWS V14.01,2013-12-17 21:42:00,
2013-12-17 15:43:00,36.5,27.0,30.12,West,275,4.0,7.0,68,0.04,,SCT080,0.13,VWS V14.01,2013-12-17 21:43:00,
2013-12-17 15:44:00,36.5,27.0,30.13,West,259,0.0,7.0,68,0.04,,SCT080,0.13,VWS V14.01,2013-12-17 21:44:00,
2013-12-17 15:45:00,36.5,27.0,30.13,West,273,1.0,7.0,68,0.04,,CLR,0.13,VWS V14.01,2013-12-17 21:45:00,
2013-12-17 15:46:00,36.5,27.0,30.13,West,275,2.0,7.0,68,0.04,,CLR,0.13,VWS V14.01,2013-12-17 21:46:00,
2013-12-17 15:47:00,36.5,27.0,30.13,West,275,0.0,7.0,68,0.04,,CLR,0.13,VWS V14.01,2013-12-17 21:47:00,
2013-12-17 15:48:00,36.5,27.0,30.13,WNW,300,3.0,7.0,68,0.04,,CLR,0.13,VWS V14.01,2013-12-17 21:48:00,
2013-12-17 15:49:00,36.5,27.0,30.13,WNW,294,0.0,7.0,68,0.04,,CLR,0.13,VWS V14.01,2013-12-17 21:49:00,
2013-12-17 15:50:00,36.4,26.9,30.13,WNW,292,0.0,7.0,68,0.04,,CLR,0.13,VWS V14.01,2013-12-17 21:50:00,
2013-12-17 15:52:00,36.4,26.9,30.13,WNW,292,0.0,7.0,68,0.04,,CLR,0.13,VWS V14.01,2013-12-17 21:52:00,
2013-12-17 15:53:00,36.4,26.9,30.13,WNW,286,0.0,7.0,68,0.04,,CLR,0.13,VWS V14.01,2013-12-17 21:53:00,
2013-12-17 15:54:00,36.4,26.9,30.13,WSW,256,0.0,7.0,68,0.04,,CLR,0.13,VWS V14.01,2013-12-17 21:54:00,
2013-12-17 15:56:00,36.4,26.9,30.13,WNW,290,0.0,7.0,68,0.04,,CLR,0.13,VWS V14.01,2013-12-17 21:56:00,
2013-12-17 15:57:00,36.4,26.9,30.13,WNW,290,0.0,7.0,68,0.04,,CLR,0.13,VWS V14.01,2013-12-17 21:57:00,
2013-12-17 15:58:00,36.4,26.9,30.13,WNW,290,0.0,7.0,68,0.04,,CLR,0.13,VWS V14.01,2013-12-17 21:58:00,
2013-12-17 15:59:00,36.4,26.9,30.13,WNW,295,0.0,7.0,68,0.04,,CLR,0.13,VWS V14.01,2013-12-17 21:59:00,
2013-12-17 16:00:00,36.2,26.7,30.14,WNW,291,0.0,7.0,68,0.04,,CLR,0.13,VWS V14.01,2013-12-17 22:00:00,
2013-12-17 16:01:00,36.2,26.7,30.14,WNW,284,0.0,1.0,68,0.03,,CLR,0.14,VWS V14.01,2013-12-17 22:01:00,
2013-12-17 16:02:00,36.2,26.7,30.14,SW,228,0.0,1.0,68,0.03,,CLR,0.14,VWS V14.01,2013-12-17 22:02:00,
2013-12-17 16:03:00,36.2,26.7,30.14,WNW,292,0.0,1.0,68,0.03,,CLR,0.14,VWS V14.01,2013-12-17 22:03:00,
2013-12-17 16:04:00,36.2,26.7,30.14,WNW,297,0.0,1.0,68,0.03,,CLR,0.14,VWS V14.01,2013-12-17 22:04:00,
2013-12-17 16:05:00,36.2,27.0,30.14,WNW,297,0.0,1.0,69,0.03,,CLR,0.14,VWS V14.01,2013-12-17 22:05:00,
2013-12-17 16:06:00,36.1,26.9,30.14,WNW,289,0.0,1.0,69,0.03,,CLR,0.14,VWS V14.01,2013-12-17 22:06:00,
2013-12-17 16:07:00,36.1,26.9,30.14,WNW,287,5.0,6.0,69,0.03,,CLR,0.14,VWS V14.01,2013-12-17 22:07:00,
2013-12-17 16:08:00,36.1,26.6,30.14,WNW,287,2.0,6.0,68,0.03,,CLR,0.14,VWS V14.01,2013-12-17 22:08:00,
2013-12-17 16:09:00,36.1,26.6,30.14,WNW,286,3.0,6.0,68,0.03,,CLR,0.14,VWS V14.01,2013-12-17 22:09:00,
2013-12-17 16:10:00,36.1,26.6,30.14,West,279,2.0,6.0,68,0.03,,CLR,0.14,VWS V14.01,2013-12-17 22:10:00,
2013-12-17 16:12:00,35.9,26.4,30.14,West,277,2.0,8.0,68,0.03,,CLR,0.14,VWS V14.01,2013-12-17 22:12:00,
2013-12-17 16:13:00,35.9,26.4,30.14,West,265,0.0,8.0,68,0.03,,CLR,0.14,VWS V14.01,2013-12-17 22:13:00,
2013-12-17 16:14:00,35.9,26.4,30.14,West,264,0.0,8.0,68,0.03,,CLR,0.14,VWS V14.01,2013-12-17 22:14:00,
2013-12-17 16:15:00,35.8,26.3,30.14,West,269,0.0,8.0,68,0.03,,CLR,0.14,VWS V14.01,2013-12-17 22:15:00,
2013-12-17 16:16:00,35.8,26.3,30.14,WNW,286,0.0,8.0,68,0.03,,CLR,0.14,VWS V14.01,2013-12-17 22:16:00,
2013-12-17 16:17:00,35.8,26.3,30.14,WNW,286,0.0,8.0,68,0.03,,CLR,0.14,VWS V14.01,2013-12-17 22:17:00,
2013-12-17 16:18:00,35.7,26.2,30.14,West,280,2.0,8.0,68,0.03,,CLR,0.14,VWS V14.01,2013-12-17 22:18:00,
2013-12-17 16:19:00,35.7,26.2,30.14,WNW,282,1.0,8.0,68,0.03,,CLR,0.14,VWS V14.01,2013-12-17 22:19:00,
2013-12-17 16:20:00,35.7,26.5,30.14,WNW,282,0.0,8.0,69,0.03,,CLR,0.14,VWS V14.01,2013-12-17 22:20:00,
2013-12-17 16:21:00,35.7,26.5,30.14,WNW,295,4.0,8.0,69,0.03,,CLR,0.14,VWS V14.01,2013-12-17 22:21:00,
2013-12-17 16:22:00,35.5,26.4,30.14,WNW,283,2.0,8.0,69,0.03,,CLR,0.14,VWS V14.01,2013-12-17 22:22:00,
2013-12-17 16:24:00,35.4,26.3,30.14,West,275,0.0,8.0,69,0.03,,CLR,0.14,VWS V14.01,2013-12-17 22:24:00,
2013-12-17 16:25:00,35.4,26.3,30.14,West,273,0.0,8.0,69,0.03,,CLR,0.14,VWS V14.01,2013-12-17 22:25:00,
2013-12-17 16:26:00,35.4,26.3,30.14,West,274,5.0,8.0,69,0.03,,CLR,0.14,VWS V14.01,2013-12-17 22:26:00,
2013-12-17 16:27:00,35.2,26.1,30.14,West,269,2.0,8.0,69,0.03,,CLR,0.14,VWS V14.01,2013-12-17 22:27:00,
2013-12-17 16:28:00,35.2,26.1,30.14,West,268,3.0,8.0,69,0.03,,CLR,0.14,VWS V14.01,2013-12-17 22:28:00,
2013-12-17 16:29:00,35.2,26.1,30.15,NW,313,0.0,8.0,69,0.03,,CLR,0.14,VWS V14.01,2013-12-17 22:29:00,
2013-12-17 16:30:00,35.2,26.1,30.15,WNW,285,0.0,8.0,69,0.03,,CLR,0.14,VWS V14.01,2013-12-17 22:30:00,
2013-12-17 16:31:00,35.2,26.1,30.15,West,273,4.0,5.0,69,0.01,,CLR,0.14,VWS V14.01,2013-12-17 22:31:00,
2013-12-17 16:32:00,35.2,26.1,30.15,West,273,4.0,5.0,69,0.01,,CLR,0.14,VWS V14.01,2013-12-17 22:32:00,
2013-12-17 16:33:00,35.1,26.0,30.15,WSW,242,0.0,5.0,69,0.01,,CLR,0.14,VWS V14.01,2013-12-17 22:33:00,
2013-12-17 16:34:00,35.1,26.0,30.15,West,267,2.0,5.0,69,0.01,,CLR,0.14,VWS V14.01,2013-12-17 22:34:00,
2013-12-17 16:35:00,35.1,26.0,30.15,NW,310,2.0,6.0,69,0.01,,CLR,0.14,VWS V14.01,2013-12-17 22:35:00,
2013-12-17 16:36:00,34.9,26.1,30.15,WNW,300,4.0,6.0,70,0.01,,CLR,0.14,VWS V14.01,2013-12-17 22:36:00,
2013-12-17 16:37:00,34.9,26.1,30.15,WNW,298,4.0,6.0,70,0.01,,CLR,0.14,VWS V14.01,2013-12-17 22:37:00,
2013-12-17 16:38:00,34.9,26.1,30.15,West,277,5.0,6.0,70,0.01,,CLR,0.14,VWS V14.01,2013-12-17 22:38:00,
2013-12-17 16:40:00,34.9,26.1,30.15,WNW,300,1.0,6.0,70,0.01,,CLR,0.14,VWS V14.01,2013-12-17 22:40:00,
2013-12-17 16:41:00,34.8,26.0,30.15,West,266,3.0,7.0,70,0.01,,CLR,0.14,VWS V14.01,2013-12-17 22:41:00,
2013-12-17 16:42:00,34.8,26.0,30.15,West,269,3.0,7.0,70,0.01,,CLR,0.14,VWS V14.01,2013-12-17 22:42:00,
2013-12-17 16:44:00,34.8,26.0,30.15,West,278,5.0,7.0,70,0.01,,CLR,0.14,VWS V14.01,2013-12-17 22:44:00,
2013-12-17 16:45:00,34.8,26.0,30.15,SW,218,1.0,7.0,70,0.01,,CLR,0.14,VWS V14.01,2013-12-17 22:45:00,
2013-12-17 16:46:00,34.8,26.0,30.15,WNW,284,3.0,8.0,70,0.01,,CLR,0.14,VWS V14.01,2013-12-17 22:46:00,
2013-12-17 16:47:00,34.8,26.0,30.15,West,280,5.0,8.0,70,0.01,,CLR,0.14,VWS V14.01,2013-12-17 22:47:00,
2013-12-17 16:49:00,34.8,25.7,30.15,West,279,2.0,9.0,69,0.01,,CLR,0.14,VWS V14.01,2013-12-17 22:49:00,
2013-12-17 16:50:00,34.8,25.7,30.15,WNW,286,4.0,9.0,69,0.01,,CLR,0.14,VWS V14.01,2013-12-17 22:50:00,
2013-12-17 16:51:00,34.8,25.7,30.15,NW,304,0.0,9.0,69,0.01,,CLR,0.14,VWS V14.01,2013-12-17 22:51:00,
2013-12-17 16:52:00,34.8,25.7,30.15,WNW,292,0.0,9.0,69,0.01,,CLR,0.14,VWS V14.01,2013-12-17 22:52:00,
2013-12-17 16:55:00,34.8,25.7,30.15,WNW,286,8.0,9.0,69,0.01,,CLR,0.14,VWS V14.01,2013-12-17 22:55:00,
2013-12-17 16:56:00,34.6,25.5,30.15,West,280,0.0,9.0,69,0.01,,CLR,0.14,VWS V14.01,2013-12-17 22:56:00,
2013-12-17 16:57:00,34.6,25.5,30.15,West,261,0.0,9.0,69,0.01,,CLR,0.14,VWS V14.01,2013-12-17 22:57:00,
2013-12-17 17:00:00,34.6,25.5,30.14,WNW,288,2.0,9.0,69,0.01,,CLR,0.14,VWS V14.01,2013-12-17 23:00:00,
2013-12-17 17:01:00,34.6,25.5,30.14,WNW,288,6.0,6.0,69,0.00,,CLR,0.14,VWS V14.01,2013-12-17 23:01:00,
2013-12-17 17:02:00,34.6,25.5,30.14,West,279,0.0,6.0,69,0.00,,CLR,0.14,VWS V14.01,2013-12-17 23:02:00,
2013-12-17 17:05:00,34.5,25.4,30.14,West,279,0.0,6.0,69,0.00,,CLR,0.14,VWS V14.01,2013-12-17 23:05:00,
2013-12-17 17:06:00,34.5,25.4,30.14,West,279,0.0,6.0,69,0.00,,CLR,0.14,VWS V14.01,2013-12-17 23:06:00,
2013-12-17 17:07:00,34.5,25.4,30.14,WNW,289,0.0,6.0,69,0.00,,CLR,0.14,VWS V14.01,2013-12-17 23:07:00,
2013-12-17 17:08:00,34.5,25.4,30.14,West,280,5.0,6.0,69,0.00,,CLR,0.14,VWS V14.01,2013-12-17 23:08:00,
2013-12-17 17:10:00,34.3,25.2,30.14,WNW,286,2.0,7.0,69,0.00,,CLR,0.14,VWS V14.01,2013-12-17 23:10:00,
2013-12-17 17:11:00,34.3,25.2,30.14,WNW,286,2.0,7.0,69,0.00,,CLR,0.14,VWS V14.01,2013-12-17 23:11:00,
2013-12-17 17:12:00,34.3,25.2,30.14,WNW,286,1.0,7.0,69,0.00,,CLR,0.14,VWS V14.01,2013-12-17 23:12:00,
2013-12-17 17:13:00,34.3,25.2,30.14,WNW,285,3.0,7.0,69,0.00,,CLR,0.14,VWS V14.01,2013-12-17 23:13:00,
2013-12-17 17:15:00,34.3,25.2,30.15,WNW,284,4.0,7.0,69,0.00,,CLR,0.14,VWS V14.01,2013-12-17 23:15:00,
2013-12-17 17:16:00,34.3,25.2,30.15,WNW,283,3.0,7.0,69,0.00,,CLR,0.14,VWS V14.01,2013-12-17 23:16:00,
2013-12-17 17:17:00,34.3,25.2,30.15,WNW,286,2.0,7.0,69,0.00,,CLR,0.14,VWS V14.01,2013-12-17 23:17:00,
2013-12-17 17:18:00,34.3,25.2,30.15,WNW,286,2.0,7.0,69,0.00,,CLR,0.14,VWS V14.01,2013-12-17 23:18:00,
2013-12-17 17:19:00,34.2,25.1,30.15,SW,224,4.0,7.0,69,0.00,,CLR,0.14,VWS V14.01,2013-12-17 23:19:00,
2013-12-17 17:20:00,34.3,25.2,30.15,West,281,5.0,7.0,69,0.00,,CLR,0.14,VWS V14.01,2013-12-17 23:20:00,
2013-12-17 17:21:00,34.3,25.2,30.15,West,281,4.0,7.0,69,0.00,,CLR,0.14,VWS V14.01,2013-12-17 23:21:00,
2013-12-17 17:23:00,34.3,25.2,30.15,SW,232,3.0,7.0,69,0.00,,CLR,0.14,VWS V14.01,2013-12-17 23:23:00,
2013-12-17 17:24:00,34.3,25.2,30.15,SW,235,2.0,7.0,69,0.00,,CLR,0.14,VWS V14.01,2013-12-17 23:24:00,
2013-12-17 17:25:00,34.3,25.2,30.15,WNW,288,0.0,7.0,69,0.00,,CLR,0.14,VWS V14.01,2013-12-17 23:25:00,
2013-12-17 17:26:00,34.3,25.2,30.15,NW,304,3.0,7.0,69,0.00,,CLR,0.14,VWS V14.01,2013-12-17 23:26:00,
2013-12-17 17:28:00,34.3,25.2,30.15,WNW,296,3.0,7.0,69,0.00,,CLR,0.14,VWS V14.01,2013-12-17 23:28:00,
2013-12-17 17:29:00,34.3,25.2,30.16,WNW,292,3.0,7.0,69,0.00,,CLR,0.14,VWS V14.01,2013-12-17 23:29:00,
2013-12-17 17:30:00,34.3,25.2,30.16,WNW,282,4.0,5.0,69,0.00,,CLR,0.14,VWS V14.01,2013-12-17 23:30:00,
2013-12-17 17:31:00,34.3,25.2,30.16,West,278,3.0,5.0,69,0.00,,CLR,0.14,VWS V14.01,2013-12-17 23:31:00,
2013-12-17 17:33:00,34.3,25.2,30.16,West,269,2.0,5.0,69,0.00,,CLR,0.14,VWS V14.01,2013-12-17 23:33:00,
2013-12-17 17:34:00,34.3,24.9,30.16,West,267,0.0,5.0,68,0.00,,CLR,0.14,VWS V14.01,2013-12-17 23:34:00,
2013-12-17 17:50:00,34.6,24.8,30.16,WNW,284,2.0,10.0,67,0.00,,CLR,0.14,VWS V14.01,2013-12-17 23:50:00,
2013-12-17 17:51:00,34.6,24.8,30.16,WNW,284,2.0,10.0,67,0.00,,CLR,0.14,VWS V14.01,2013-12-17 23:51:00,
2013-12-17 17:55:00,34.5,25.0,30.16,WNW,287,3.0,10.0,68,0.00,,CLR,0.14,VWS V14.01,2013-12-17 23:55:00,
2013-12-17 17:56:00,34.5,24.7,30.16,West,277,2.0,10.0,67,0.00,,CLR,0.14,VWS V14.01,2013-12-17 23:56:00,
2013-12-17 18:00:00,34.5,24.7,30.17,NW,313,0.0,10.0,67,0.00,,CLR,0.14,VWS V14.01,2013-12-18 00:00:00,
2013-12-17 18:01:00,34.5,24.7,30.17,West,263,2.0,2.0,67,0.00,,CLR,0.14,VWS V14.01,2013-12-18 00:01:00,
2013-12-17 18:05:00,34.5,24.7,30.17,WNW,291,4.0,9.0,67,0.00,,CLR,0.14,VWS V14.01,2013-12-18 00:05:00,
2013-12-17 18:06:00,34.5,24.7,30.17,WNW,290,2.0,9.0,67,0.00,,CLR,0.14,VWS V14.01,2013-12-18 00:06:00,
2013-12-17 18:07:00,34.5,24.7,30.17,WNW,282,3.0,9.0,67,0.00,,CLR,0.14,VWS V14.01,2013-12-18 00:07:00,
2013-12-17 18:10:00,34.3,24.5,30.17,West,275,3.0,9.0,67,0.00,,CLR,0.14,VWS V14.01,2013-12-18 00:10:00,
2013-12-17 18:11:00,34.3,24.5,30.17,West,275,3.0,9.0,67,0.00,,CLR,0.14,VWS V14.01,2013-12-18 00:11:00,
2013-12-17 18:12:00,34.3,24.5,30.17,West,275,1.0,9.0,67,0.00,,CLR,0.14,VWS V14.01,2013-12-18 00:12:00,
2013-12-17 18:15:00,34.3,24.5,30.17,West,269,3.0,9.0,67,0.00,,CLR,0.14,VWS V14.01,2013-12-18 00:15:00,
2013-12-17 18:16:00,34.3,24.5,30.17,West,273,3.0,9.0,67,0.00,,CLR,0.14,VWS V14.01,2013-12-18 00:16:00,
2013-12-17 18:17:00,34.2,24.4,30.17,WNW,285,4.0,9.0,67,0.00,,CLR,0.14,VWS V14.01,2013-12-18 00:17:00,
2013-12-17 18:30:00,32.6,24.2,30.18,WSW,239,2.0,5.0,71,0.00,,OVC037,0.14,VWS V14.01,2013-12-18 00:30:00,
2013-12-17 18:45:00,33.7,24.3,30.17,WSW,241,0.0,0.0,68,0.00,,,0.14,VWS V14.01,2013-12-18 00:45:00,
2013-12-17 18:46:00,33.7,24.3,30.17,WSW,241,0.0,0.0,68,0.00,,,0.14,VWS V14.01,2013-12-18 00:46:00,
2013-12-17 18:50:00,33.6,24.2,30.17,WSW,242,0.0,0.0,68,0.00,,CLR,0.14,VWS V14.01,2013-12-18 00:50:00,
2013-12-17 18:51:00,33.6,24.2,30.17,WSW,242,0.0,0.0,68,0.00,,CLR,0.14,VWS V14.01,2013-12-18 00:51:00,
2013-12-17 18:55:00,33.4,24.0,30.17,WSW,242,0.0,0.0,68,0.00,,CLR,0.14,VWS V14.01,2013-12-18 00:55:00,
2013-12-17 18:56:00,33.4,24.0,30.17,WSW,242,0.0,0.0,68,0.00,,CLR,0.14,VWS V14.01,2013-12-18 00:56:00,
2013-12-17 18:57:00,33.4,24.0,30.17,SW,233,4.0,5.0,68,0.00,,CLR,0.14,VWS V14.01,2013-12-18 00:57:00,
2013-12-17 19:00:00,33.4,24.3,30.18,SW,234,1.0,5.0,69,0.00,,,0.14,VWS V14.01,2013-12-18 01:00:00,
2013-12-17 19:01:00,33.4,24.3,30.18,SW,234,2.0,3.0,69,0.00,,CLR,0.14,VWS V14.01,2013-12-18 01:01:00,
2013-12-17 19:02:00,33.3,24.2,30.18,WSW,244,3.0,4.0,69,0.00,,CLR,0.14,VWS V14.01,2013-12-18 01:02:00,
2013-12-17 19:06:00,33.3,24.2,30.18,WSW,257,3.0,5.0,69,0.00,,CLR,0.14,VWS V14.01,2013-12-18 01:06:00,
2013-12-17 19:07:00,33.3,24.2,30.18,WSW,257,1.0,5.0,69,0.00,,CLR,0.14,VWS V14.01,2013-12-18 01:07:00,
2013-12-17 19:08:00,33.3,24.2,30.18,WSW,257,1.0,5.0,69,0.00,,CLR,0.14,VWS V14.01,2013-12-18 01:08:00,
2013-12-17 19:11:00,33.1,24.0,30.18,WSW,248,2.0,5.0,69,0.00,,CLR,0.14,VWS V14.01,2013-12-18 01:11:00,
2013-12-17 19:12:00,33.1,24.0,30.18,WSW,247,2.0,5.0,69,0.00,,CLR,0.14,VWS V14.01,2013-12-18 01:12:00,
2013-12-17 19:13:00,33.0,24.0,30.18,WSW,247,0.0,5.0,69,0.00,,CLR,0.14,VWS V14.01,2013-12-18 01:13:00,
2013-12-17 19:16:00,33.0,24.3,30.18,WSW,246,0.0,5.0,70,0.00,,CLR,0.14,VWS V14.01,2013-12-18 01:16:00,
2013-12-17 19:17:00,32.8,24.1,30.18,WSW,246,0.0,5.0,70,0.00,,CLR,0.14,VWS V14.01,2013-12-18 01:17:00,
2013-12-17 19:18:00,32.8,24.1,30.18,WSW,247,0.0,5.0,70,0.00,,CLR,0.14,VWS V14.01,2013-12-18 01:18:00,
2013-12-17 19:21:00,32.8,24.1,30.18,WSW,240,0.0,5.0,70,0.00,,CLR,0.14,VWS V14.01,2013-12-18 01:21:00,
2013-12-17 19:22:00,32.8,24.1,30.18,WSW,241,0.0,5.0,70,0.00,,CLR,0.14,VWS V14.01,2013-12-18 01:22:00,
2013-12-17 19:23:00,32.8,24.1,30.18,WSW,241,0.0,5.0,70,0.00,,CLR,0.14,VWS V14.01,2013-12-18 01:23:00,
2013-12-17 19:25:00,32.7,24.4,30.18,WSW,248,0.0,5.0,71,0.00,,CLR,0.14,VWS V14.01,2013-12-18 01:25:00,
2013-12-17 19:26:00,32.7,24.4,30.18,WSW,246,0.0,5.0,71,0.00,,CLR,0.14,VWS V14.01,2013-12-18 01:26:00,
2013-12-17 19:27:00,32.7,24.4,30.18,WSW,246,0.0,5.0,71,0.00,,CLR,0.14,VWS V14.01,2013-12-18 01:27:00,
2013-12-17 19:28:00,32.7,24.4,30.18,West,265,4.0,5.0,71,0.00,,CLR,0.14,VWS V14.01,2013-12-18 01:28:00,
2013-12-17 19:30:00,32.6,24.2,30.18,WSW,239,2.0,3.0,71,0.00,,CLR,0.14,VWS V14.01,2013-12-18 01:30:00,
2013-12-17 19:31:00,32.6,24.2,30.18,WSW,239,1.0,3.0,71,0.00,,CLR,0.14,VWS V14.01,2013-12-18 01:31:00,
2013-12-17 19:32:00,32.6,24.2,30.18,WSW,239,3.0,3.0,71,0.00,,CLR,0.14,VWS V14.01,2013-12-18 01:32:00,
2013-12-17 19:33:00,32.6,24.2,30.18,WSW,240,3.0,5.0,71,0.00,,CLR,0.14,VWS V14.01,2013-12-18 01:33:00,
2013-12-17 19:35:00,32.4,24.1,30.18,WSW,240,0.0,5.0,71,0.00,,CLR,0.14,VWS V14.01,2013-12-18 01:35:00,
2013-12-17 19:36:00,32.4,24.1,30.18,WSW,237,0.0,5.0,71,0.00,,CLR,0.14,VWS V14.01,2013-12-18 01:36:00,
2013-12-17 19:37:00,32.4,24.1,30.18,WSW,237,0.0,5.0,71,0.00,,CLR,0.14,VWS V14.01,2013-12-18 01:37:00,
2013-12-17 19:38:00,32.4,24.4,30.18,WSW,238,0.0,5.0,72,0.00,,CLR,0.14,VWS V14.01,2013-12-18 01:38:00,
2013-12-17 19:41:00,32.4,24.4,30.18,WSW,248,0.0,5.0,72,0.00,,CLR,0.14,VWS V14.01,2013-12-18 01:41:00,
2013-12-17 19:42:00,32.4,24.4,30.18,WSW,246,0.0,5.0,72,0.00,,CLR,0.14,VWS V14.01,2013-12-18 01:42:00,
2013-12-17 19:44:00,32.3,24.3,30.18,West,273,0.0,5.0,72,0.00,,CLR,0.14,VWS V14.01,2013-12-18 01:44:00,
2013-12-17 19:46:00,32.3,24.6,30.18,WSW,255,0.0,5.0,73,0.00,,CLR,0.14,VWS V14.01,2013-12-18 01:46:00,
2013-12-17 19:47:00,32.3,24.6,30.18,WSW,254,0.0,5.0,73,0.00,,CLR,0.14,VWS V14.01,2013-12-18 01:47:00,
2013-12-17 19:48:00,32.3,24.3,30.18,WSW,255,0.0,5.0,72,0.00,,CLR,0.14,VWS V14.01,2013-12-18 01:48:00,
2013-12-17 19:49:00,32.3,24.3,30.18,West,259,0.0,5.0,72,0.00,,CLR,0.14,VWS V14.01,2013-12-18 01:49:00,
2013-12-17 19:51:00,32.1,24.1,30.18,WSW,252,0.0,5.0,72,0.00,,CLR,0.14,VWS V14.01,2013-12-18 01:51:00,
2013-12-17 19:53:00,32.1,24.1,30.18,SSW,212,0.0,5.0,72,0.00,,CLR,0.14,VWS V14.01,2013-12-18 01:53:00,
2013-12-17 19:54:00,32.1,24.1,30.18,WSW,237,3.0,5.0,72,0.00,,CLR,0.14,VWS V14.01,2013-12-18 01:54:00,
2013-12-17 19:55:00,32.1,24.1,30.18,SW,235,0.0,5.0,72,0.00,,CLR,0.14,VWS V14.01,2013-12-18 01:55:00,
2013-12-17 19:56:00,32.1,24.1,30.18,WSW,248,0.0,5.0,72,0.00,,CLR,0.14,VWS V14.01,2013-12-18 01:56:00,
2013-12-17 19:58:00,32.1,24.1,30.18,West,280,3.0,5.0,72,0.00,,CLR,0.14,VWS V14.01,2013-12-18 01:58:00,
2013-12-17 19:59:00,32.1,24.1,30.18,West,280,2.0,5.0,72,0.00,,CLR,0.14,VWS V14.01,2013-12-18 01:59:00,
2013-12-17 20:00:00,32.1,24.1,30.18,West,280,1.0,1.0,72,0.00,,CLR,0.14,VWS V14.01,2013-12-18 02:00:00,
2013-12-17 20:02:00,32.0,24.0,30.18,West,279,0.0,3.0,72,0.00,,CLR,0.14,VWS V14.01,2013-12-18 02:02:00,
2013-12-17 20:03:00,32.0,24.0,30.18,West,279,0.0,3.0,72,0.00,,CLR,0.14,VWS V14.01,2013-12-18 02:03:00,
2013-12-17 20:04:00,32.0,24.0,30.18,West,279,0.0,3.0,72,0.00,,CLR,0.14,VWS V14.01,2013-12-18 02:04:00,
2013-12-17 20:06:00,31.8,24.1,30.18,West,269,3.0,4.0,73,0.00,,CLR,0.14,VWS V14.01,2013-12-18 02:06:00,
2013-12-17 20:08:00,31.8,24.1,30.18,WSW,250,2.0,4.0,73,0.00,,CLR,0.14,VWS V14.01,2013-12-18 02:08:00,
2013-12-17 20:09:00,31.8,24.1,30.18,WSW,248,3.0,4.0,73,0.00,,CLR,0.14,VWS V14.01,2013-12-18 02:09:00,
2013-12-17 20:11:00,31.8,23.8,30.18,WSW,252,1.0,4.0,72,0.00,,CLR,0.14,VWS V14.01,2013-12-18 02:11:00,
2013-12-17 20:13:00,31.8,23.8,30.18,West,277,6.0,6.0,72,0.00,,CLR,0.14,VWS V14.01,2013-12-18 02:13:00,
2013-12-17 20:14:00,31.8,23.8,30.18,West,269,3.0,6.0,72,0.00,,CLR,0.14,VWS V14.01,2013-12-18 02:14:00,
2013-12-17 20:15:00,31.8,23.8,30.17,WSW,243,3.0,6.0,72,0.00,,CLR,0.14,VWS V14.01,2013-12-18 02:15:00,
2013-12-17 20:16:00,31.8,23.8,30.17,West,259,4.0,6.0,72,0.00,,CLR,0.14,VWS V14.01,2013-12-18 02:16:00,
2013-12-17 20:18:00,31.8,23.8,30.17,WSW,257,3.0,6.0,72,0.00,,CLR,0.14,VWS V14.01,2013-12-18 02:18:00,
2013-12-17 20:19:00,31.8,23.8,30.17,WSW,257,2.0,6.0,72,0.00,,CLR,0.14,VWS V14.01,2013-12-18 02:19:00,
2013-12-17 20:20:00,32.0,24.0,30.17,West,267,5.0,6.0,72,0.00,,CLR,0.14,VWS V14.01,2013-12-18 02:20:00,
2013-12-17 20:21:00,32.0,24.0,30.17,West,263,3.0,6.0,72,0.00,,CLR,0.14,VWS V14.01,2013-12-18 02:21:00,
2013-12-17 20:23:00,32.0,24.0,30.17,West,263,1.0,6.0,72,0.00,,CLR,0.14,VWS V14.01,2013-12-18 02:23:00,
2013-12-17 20:24:00,32.0,24.0,30.17,West,263,3.0,6.0,72,0.00,,CLR,0.14,VWS V14.01,2013-12-18 02:24:00,
2013-12-17 20:25:00,31.8,23.8,30.17,West,264,2.0,6.0,72,0.00,,CLR,0.14,VWS V14.01,2013-12-18 02:25:00,
2013-12-17 20:26:00,31.8,23.8,30.17,West,264,2.0,6.0,72,0.00,,CLR,0.14,VWS V14.01,2013-12-18 02:26:00,
2013-12-17 20:29:00,31.8,23.8,30.17,West,281,0.0,7.0,72,0.00,,CLR,0.14,VWS V14.01,2013-12-18 02:29:00,
2013-12-17 20:30:00,31.8,23.8,30.19,West,267,0.0,0.0,72,0.00,,CLR,0.14,VWS V14.01,2013-12-18 02:30:00,
2013-12-17 20:32:00,31.8,23.8,30.19,West,267,0.0,0.0,72,0.00,,CLR,0.14,VWS V14.01,2013-12-18 02:32:00,
2013-12-17 20:34:00,31.7,23.7,30.19,NW,305,1.0,3.0,72,0.00,,CLR,0.14,VWS V14.01,2013-12-18 02:34:00,
2013-12-17 20:35:00,31.7,23.7,30.19,WNW,294,3.0,5.0,72,0.00,,CLR,0.14,VWS V14.01,2013-12-18 02:35:00,
2013-12-17 20:37:00,31.7,23.4,30.19,WNW,295,2.0,5.0,71,0.00,,CLR,0.14,VWS V14.01,2013-12-18 02:37:00,
2013-12-17 20:39:00,31.7,23.4,30.19,West,281,2.0,5.0,71,0.00,,CLR,0.14,VWS V14.01,2013-12-18 02:39:00,
2013-12-17 20:40:00,31.7,23.4,30.19,WNW,286,6.0,6.0,71,0.00,,CLR,0.14,VWS V14.01,2013-12-18 02:40:00,
2013-12-17 20:41:00,31.7,23.4,30.19,WNW,288,4.0,6.0,71,0.00,,CLR,0.14,VWS V14.01,2013-12-18 02:41:00,
2013-12-17 20:43:00,31.7,23.4,30.19,West,281,0.0,6.0,71,0.00,,CLR,0.14,VWS V14.01,2013-12-18 02:43:00,
2013-12-17 20:44:00,31.7,23.4,30.19,West,278,0.0,6.0,71,0.00,,CLR,0.14,VWS V14.01,2013-12-18 02:44:00,
2013-12-17 20:45:00,31.7,23.4,30.19,West,278,0.0,6.0,71,0.00,,CLR,0.14,VWS V14.01,2013-12-18 02:45:00,
2013-12-17 20:46:00,31.7,23.4,30.19,West,273,0.0,6.0,71,0.00,,CLR,0.14,VWS V14.01,2013-12-18 02:46:00,
2013-12-17 20:48:00,31.8,23.5,30.19,WNW,294,0.0,6.0,71,0.00,,CLR,0.14,VWS V14.01,2013-12-18 02:48:00,
2013-12-17 20:49:00,31.8,23.5,30.19,WNW,284,2.0,6.0,71,0.00,,CLR,0.14,VWS V14.01,2013-12-18 02:49:00,
2013-12-17 20:50:00,31.8,23.1,30.19,WNW,284,1.0,6.0,70,0.00,,CLR,0.14,VWS V14.01,2013-12-18 02:50:00,
2013-12-17 20:51:00,31.8,23.1,30.19,WNW,288,3.0,6.0,70,0.00,,CLR,0.14,VWS V14.01,2013-12-18 02:51:00,
2013-12-17 20:53:00,31.8,23.5,30.19,WNW,291,0.0,7.0,71,0.00,,CLR,0.14,VWS V14.01,2013-12-18 02:53:00,
2013-12-17 20:54:00,31.8,23.5,30.19,WNW,291,0.0,7.0,71,0.00,,CLR,0.14,VWS V14.01,2013-12-18 02:54:00,
2013-12-17 20:55:00,32.0,23.7,30.19,WNW,291,0.0,7.0,71,0.00,,CLR,0.14,VWS V14.01,2013-12-18 02:55:00,
2013-12-17 20:56:00,32.0,23.7,30.19,WNW,290,0.0,7.0,71,0.00,,CLR,0.14,VWS V14.01,2013-12-18 02:56:00,
2013-12-17 20:57:00,31.8,23.5,30.19,WNW,287,0.0,7.0,71,0.00,,CLR,0.14,VWS V14.01,2013-12-18 02:57:00,
2013-12-17 20:58:00,31.8,23.5,30.19,WNW,288,0.0,7.0,71,0.00,,CLR,0.14,VWS V14.01,2013-12-18 02:58:00,
2013-12-17 20:59:00,31.8,23.5,30.19,WNW,302,0.0,7.0,71,0.00,,CLR,0.14,VWS V14.01,2013-12-18 02:59:00,
2013-12-17 21:00:00,31.8,23.5,30.19,WNW,301,0.0,0.0,71,0.00,,CLR,0.14,VWS V14.01,2013-12-18 03:00:00,
2013-12-17 21:01:00,31.8,23.5,30.19,WNW,301,0.0,0.0,71,0.00,,CLR,0.14,VWS V14.01,2013-12-18 03:01:00,
2013-12-17 21:02:00,31.7,23.4,30.19,WNW,296,0.0,0.0,71,0.00,,CLR,0.14,VWS V14.01,2013-12-18 03:02:00,
2013-12-17 21:03:00,31.7,23.0,30.19,WNW,294,0.0,0.0,70,0.00,,CLR,0.14,VWS V14.01,2013-12-18 03:03:00,
2013-12-17 21:04:00,31.7,23.4,30.19,WNW,288,0.0,0.0,71,0.00,,CLR,0.14,VWS V14.01,2013-12-18 03:04:00,
2013-12-17 21:05:00,31.7,23.4,30.19,West,280,2.0,2.0,71,0.00,,CLR,0.14,VWS V14.01,2013-12-18 03:05:00,
2013-12-17 21:06:00,31.7,23.4,30.19,WNW,302,1.0,5.0,71,0.00,,CLR,0.14,VWS V14.01,2013-12-18 03:06:00,
2013-12-17 21:07:00,31.7,23.4,30.19,WNW,289,2.0,5.0,71,0.00,,CLR,0.14,VWS V14.01,2013-12-18 03:07:00,
2013-12-17 21:09:00,31.7,23.4,30.19,WNW,291,2.0,6.0,71,0.00,,CLR,0.14,VWS V14.01,2013-12-18 03:09:00,
2013-12-17 21:10:00,31.7,23.4,30.19,WNW,302,3.0,6.0,71,0.00,,CLR,0.14,VWS V14.01,2013-12-18 03:10:00,
2013-12-17 21:11:00,31.7,23.4,30.19,West,276,2.0,6.0,71,0.00,,CLR,0.14,VWS V14.01,2013-12-18 03:11:00,
2013-12-17 21:12:00,31.7,23.4,30.19,WNW,299,0.0,6.0,71,0.00,,CLR,0.14,VWS V14.01,2013-12-18 03:12:00,
2013-12-17 21:14:00,31.7,23.4,30.19,West,278,2.0,7.0,71,0.00,,CLR,0.14,VWS V14.01,2013-12-18 03:14:00,
2013-12-17 21:15:00,31.7,23.4,30.20,West,277,1.0,7.0,71,0.00,,CLR,0.14,VWS V14.01,2013-12-18 03:15:00,
2013-12-17 21:16:00,31.7,23.4,30.20,WNW,284,0.0,7.0,71,0.00,,CLR,0.14,VWS V14.01,2013-12-18 03:16:00,
2013-12-17 21:17:00,31.5,23.2,30.20,West,280,0.0,7.0,71,0.00,,CLR,0.14,VWS V14.01,2013-12-18 03:17:00,
2013-12-17 21:18:00,31.5,23.2,30.20,West,279,0.0,7.0,71,0.00,,CLR,0.14,VWS V14.01,2013-12-18 03:18:00,
2013-12-17 21:19:00,31.5,23.2,30.20,West,275,0.0,7.0,71,0.00,,CLR,0.14,VWS V14.01,2013-12-18 03:19:00,
2013-12-17 21:20:00,31.5,23.2,30.20,West,277,0.0,7.0,71,0.00,,CLR,0.14,VWS V14.01,2013-12-18 03:20:00,
2013-12-17 21:21:00,31.4,23.1,30.20,West,278,0.0,7.0,71,0.00,,CLR,0.14,VWS V14.01,2013-12-18 03:21:00,
2013-12-17 21:22:00,31.4,23.1,30.20,WNW,283,0.0,7.0,71,0.00,,CLR,0.14,VWS V14.01,2013-12-18 03:22:00,
2013-12-17 21:23:00,31.4,23.1,30.20,West,281,4.0,7.0,71,0.00,,CLR,0.14,VWS V14.01,2013-12-18 03:23:00,
2013-12-17 21:24:00,31.2,22.9,30.20,WNW,284,0.0,7.0,71,0.00,,CLR,0.14,VWS V14.01,2013-12-18 03:24:00,
2013-12-17 21:25:00,31.2,22.9,30.20,WNW,284,0.0,7.0,71,0.00,,CLR,0.14,VWS V14.01,2013-12-18 03:25:00,
2013-12-17 21:26:00,31.2,23.2,30.20,WNW,285,0.0,7.0,72,0.00,,CLR,0.14,VWS V14.01,2013-12-18 03:26:00,
2013-12-17 21:27:00,31.1,23.1,30.20,WNW,285,0.0,7.0,72,0.00,,CLR,0.14,VWS V14.01,2013-12-18 03:27:00,
2013-12-17 21:28:00,31.1,23.1,30.20,WNW,284,0.0,7.0,72,0.00,,CLR,0.14,VWS V14.01,2013-12-18 03:28:00,
2013-12-17 21:29:00,31.1,23.1,30.20,WNW,288,0.0,7.0,72,0.00,,CLR,0.14,VWS V14.01,2013-12-18 03:29:00,
2013-12-17 21:30:00,31.1,23.1,30.20,WNW,288,0.0,7.0,72,0.00,,CLR,0.14,VWS V14.01,2013-12-18 03:30:00,
2013-12-17 21:31:00,30.9,23.0,30.20,WNW,286,0.0,3.0,72,0.00,,CLR,0.14,VWS V14.01,2013-12-18 03:31:00,
2013-12-17 21:32:00,30.9,23.0,30.20,WNW,287,0.0,4.0,72,0.00,,CLR,0.14,VWS V14.01,2013-12-18 03:32:00,
2013-12-17 21:33:00,30.9,23.0,30.20,WNW,287,0.0,4.0,72,0.00,,CLR,0.14,VWS V14.01,2013-12-18 03:33:00,
2013-12-17 21:34:00,30.9,23.0,30.20,WNW,287,0.0,4.0,72,0.00,,CLR,0.14,VWS V14.01,2013-12-18 03:34:00,
2013-12-17 21:35:00,30.8,22.9,30.20,NW,318,5.0,5.0,72,0.00,,CLR,0.14,VWS V14.01,2013-12-18 03:35:00,
2013-12-17 21:36:00,30.8,22.9,30.20,NW,304,0.0,5.0,72,0.00,,CLR,0.14,VWS V14.01,2013-12-18 03:36:00,
2013-12-17 21:38:00,30.6,22.7,30.20,NW,305,0.0,5.0,72,0.00,,CLR,0.14,VWS V14.01,2013-12-18 03:38:00,
2013-12-17 21:39:00,30.6,22.3,30.20,NW,306,0.0,5.0,71,0.00,,CLR,0.14,VWS V14.01,2013-12-18 03:39:00,
2013-12-17 21:40:00,30.5,22.2,30.20,WNW,303,0.0,5.0,71,0.00,,CLR,0.14,VWS V14.01,2013-12-18 03:40:00,
2013-12-17 21:41:00,30.5,22.2,30.20,WNW,303,0.0,5.0,71,0.00,,CLR,0.14,VWS V14.01,2013-12-18 03:41:00,
2013-12-17 21:43:00,30.5,22.2,30.20,WNW,303,0.0,5.0,71,0.00,,CLR,0.14,VWS V14.01,2013-12-18 03:43:00,
2013-12-17 21:44:00,30.5,22.2,30.20,WNW,301,0.0,5.0,71,0.00,,CLR,0.14,VWS V14.01,2013-12-18 03:44:00,
2013-12-17 21:45:00,30.3,22.4,30.21,WNW,297,0.0,5.0,72,0.00,,CLR,0.14,VWS V14.01,2013-12-18 03:45:00,
2013-12-17 21:46:00,30.5,22.6,30.21,WNW,299,0.0,5.0,72,0.00,,CLR,0.14,VWS V14.01,2013-12-18 03:46:00,
2013-12-17 21:48:00,30.3,22.4,30.21,WNW,299,0.0,5.0,72,0.00,,CLR,0.14,VWS V14.01,2013-12-18 03:48:00,
2013-12-17 21:49:00,30.3,22.0,30.21,WNW,299,0.0,5.0,71,0.00,,CLR,0.14,VWS V14.01,2013-12-18 03:49:00,
2013-12-17 21:50:00,30.3,22.0,30.21,WNW,299,0.0,5.0,71,0.00,,CLR,0.14,VWS V14.01,2013-12-18 03:50:00,
2013-12-17 21:51:00,30.2,21.9,30.21,WNW,299,0.0,5.0,71,0.00,,CLR,0.14,VWS V14.01,2013-12-18 03:51:00,
2013-12-17 21:53:00,30.0,21.8,30.21,WNW,299,0.0,5.0,71,0.00,,CLR,0.14,VWS V14.01,2013-12-18 03:53:00,
2013-12-17 21:54:00,30.0,21.8,30.21,NW,313,0.0,5.0,71,0.00,,CLR,0.14,VWS V14.01,2013-12-18 03:54:00,
2013-12-17 21:56:00,29.9,22.0,30.21,WNW,298,0.0,5.0,72,0.00,,CLR,0.14,VWS V14.01,2013-12-18 03:56:00,
2013-12-17 21:58:00,29.7,21.8,30.21,WNW,299,0.0,5.0,72,0.00,,CLR,0.14,VWS V14.01,2013-12-18 03:58:00,
2013-12-17 22:00:00,29.7,21.8,30.22,NW,311,0.0,5.0,72,0.00,,CLR,0.14,VWS V14.01,2013-12-18 04:00:00,
2013-12-17 22:01:00,29.6,21.7,30.22,NW,311,0.0,0.0,72,0.00,,CLR,0.14,VWS V14.01,2013-12-18 04:01:00,
2013-12-17 22:02:00,29.6,21.7,30.22,NW,311,0.0,0.0,72,0.00,,CLR,0.14,VWS V14.01,2013-12-18 04:02:00,
2013-12-17 22:03:00,29.6,21.4,30.22,NW,311,0.0,0.0,71,0.00,,CLR,0.14,VWS V14.01,2013-12-18 04:03:00,
2013-12-17 22:05:00,29.4,21.5,30.22,WNW,302,0.0,0.0,72,0.00,,CLR,0.14,VWS V14.01,2013-12-18 04:05:00,
2013-12-17 22:06:00,29.4,21.5,30.22,NW,304,0.0,0.0,72,0.00,,CLR,0.14,VWS V14.01,2013-12-18 04:06:00,
2013-12-17 22:07:00,29.3,21.4,30.22,NW,304,0.0,0.0,72,0.00,,CLR,0.14,VWS V14.01,2013-12-18 04:07:00,
2013-12-17 22:08:00,29.3,21.4,30.22,WNW,302,0.0,0.0,72,0.00,,CLR,0.14,VWS V14.01,2013-12-18 04:08:00,
2013-12-17 22:10:00,29.2,21.3,30.22,WNW,296,0.0,0.0,72,0.00,,CLR,0.14,VWS V14.01,2013-12-18 04:10:00,
2013-12-17 22:11:00,29.2,21.0,30.22,WNW,298,0.0,0.0,71,0.00,,CLR,0.14,VWS V14.01,2013-12-18 04:11:00,
2013-12-17 22:13:00,29.2,21.3,30.22,WNW,299,0.0,0.0,72,0.00,,CLR,0.14,VWS V14.01,2013-12-18 04:13:00,
2013-12-17 22:14:00,29.0,20.8,30.22,NW,310,0.0,0.0,71,0.00,,CLR,0.14,VWS V14.01,2013-12-18 04:14:00,
2013-12-17 22:15:00,29.0,20.8,30.22,NW,310,0.0,0.0,71,0.00,,CLR,0.14,VWS V14.01,2013-12-18 04:15:00,
2013-12-17 22:16:00,28.9,20.7,30.22,NW,308,0.0,0.0,71,0.00,,CLR,0.14,VWS V14.01,2013-12-18 04:16:00,
2013-12-17 22:17:00,28.9,20.7,30.22,NW,308,0.0,0.0,71,0.00,,CLR,0.14,VWS V14.01,2013-12-18 04:17:00,
2013-12-17 22:18:00,28.9,20.7,30.22,NW,308,0.0,0.0,71,0.00,,CLR,0.14,VWS V14.01,2013-12-18 04:18:00,
2013-12-17 22:19:00,28.9,20.7,30.22,NW,310,0.0,0.0,71,0.00,,CLR,0.14,VWS V14.01,2013-12-18 04:19:00,
2013-12-17 22:20:00,28.9,20.7,30.22,WNW,290,0.0,0.0,71,0.00,,CLR,0.14,VWS V14.01,2013-12-18 04:20:00,
2013-12-17 22:22:00,29.0,20.8,30.22,WNW,290,0.0,0.0,71,0.00,,CLR,0.14,VWS V14.01,2013-12-18 04:22:00,
2013-12-17 22:23:00,29.0,20.8,30.22,WNW,290,0.0,0.0,71,0.00,,CLR,0.14,VWS V14.01,2013-12-18 04:23:00,
2013-12-17 22:24:00,29.0,20.8,30.22,WNW,290,0.0,0.0,71,0.00,,CLR,0.14,VWS V14.01,2013-12-18 04:24:00,
2013-12-17 22:26:00,29.0,20.5,30.22,WNW,293,0.0,0.0,70,0.00,,CLR,0.14,VWS V14.01,2013-12-18 04:26:00,
2013-12-17 22:27:00,29.0,20.5,30.22,WNW,293,0.0,0.0,70,0.00,,CLR,0.14,VWS V14.01,2013-12-18 04:27:00,
2013-12-17 22:29:00,29.0,20.1,30.22,West,273,0.0,0.0,69,0.00,,CLR,0.14,VWS V14.01,2013-12-18 04:29:00,
2013-12-17 22:30:00,29.0,19.8,30.22,West,273,0.0,0.0,68,0.00,,,0.14,VWS V14.01,2013-12-18 04:30:00,
2013-12-17 22:31:00,29.0,19.8,30.22,West,272,0.0,0.0,68,0.00,,CLR,0.14,VWS V14.01,2013-12-18 04:31:00,
2013-12-17 22:32:00,29.0,19.8,30.22,West,273,0.0,0.0,68,0.00,,CLR,0.14,VWS V14.01,2013-12-18 04:32:00,
2013-12-17 22:34:00,29.0,19.4,30.22,West,273,0.0,0.0,67,0.00,,CLR,0.14,VWS V14.01,2013-12-18 04:34:00,
2013-12-17 22:37:00,29.0,19.1,30.22,WNW,296,0.0,5.0,66,0.00,,CLR,0.14,VWS V14.01,2013-12-18 04:37:00,
2013-12-17 22:39:00,28.9,19.0,30.22,WNW,290,0.0,7.0,66,0.00,,CLR,0.14,VWS V14.01,2013-12-18 04:39:00,
2013-12-17 22:40:00,28.9,19.0,30.22,NW,311,0.0,7.0,66,0.00,,CLR,0.14,VWS V14.01,2013-12-18 04:40:00,
2013-12-17 22:42:00,28.9,18.6,30.22,NW,314,0.0,7.0,65,0.00,,CLR,0.14,VWS V14.01,2013-12-18 04:42:00,
2013-12-17 22:44:00,28.9,19.0,30.22,NW,315,0.0,7.0,66,0.00,,CLR,0.14,VWS V14.01,2013-12-18 04:44:00,
2013-12-17 22:45:00,28.9,18.6,30.22,WNW,299,0.0,7.0,65,0.00,,CLR,0.14,VWS V14.01,2013-12-18 04:45:00,
2013-12-17 22:47:00,28.7,18.1,30.22,WNW,296,0.0,7.0,64,0.00,,CLR,0.14,VWS V14.01,2013-12-18 04:47:00,
2013-12-17 22:49:00,28.7,18.1,30.22,WNW,292,0.0,7.0,64,0.00,,CLR,0.14,VWS V14.01,2013-12-18 04:49:00,
2013-12-17 22:50:00,28.7,17.7,30.22,WNW,292,0.0,7.0,63,0.00,,CLR,0.14,VWS V14.01,2013-12-18 04:50:00,
2013-12-17 22:52:00,28.7,17.7,30.22,WNW,299,0.0,7.0,63,0.00,,CLR,0.14,VWS V14.01,2013-12-18 04:52:00,
2013-12-17 22:54:00,28.6,17.6,30.22,WNW,298,0.0,7.0,63,0.00,,CLR,0.14,VWS V14.01,2013-12-18 04:54:00,
2013-12-17 22:55:00,28.6,17.2,30.22,WNW,288,0.0,7.0,62,0.00,,CLR,0.14,VWS V14.01,2013-12-18 04:55:00,
2013-12-17 22:57:00,28.6,17.2,30.22,WNW,292,0.0,7.0,62,0.00,,CLR,0.14,VWS V14.01,2013-12-18 04:57:00,
2013-12-17 23:00:00,28.4,17.1,30.22,WNW,290,0.0,7.0,62,0.00,,CLR,0.14,VWS V14.01,2013-12-18 05:00:00,
2013-12-17 23:01:00,28.4,17.1,30.22,WNW,289,0.0,0.0,62,0.00,,CLR,0.14,VWS V14.01,2013-12-18 05:01:00,
2013-12-17 23:06:00,28.3,17.0,30.22,WNW,290,0.0,0.0,62,0.00,,CLR,0.14,VWS V14.01,2013-12-18 05:06:00,
2013-12-17 23:07:00,28.1,16.8,30.22,WNW,290,0.0,0.0,62,0.00,,CLR,0.14,VWS V14.01,2013-12-18 05:07:00,
2013-12-17 23:11:00,28.0,16.7,30.22,WNW,290,0.0,0.0,62,0.00,,CLR,0.14,VWS V14.01,2013-12-18 05:11:00,
2013-12-17 23:12:00,28.0,16.7,30.22,WNW,290,0.0,0.0,62,0.00,,CLR,0.14,VWS V14.01,2013-12-18 05:12:00,
2013-12-17 23:16:00,27.8,16.5,30.22,WNW,300,0.0,0.0,62,0.00,,CLR,0.14,VWS V14.01,2013-12-18 05:16:00,
2013-12-17 23:17:00,27.8,16.5,30.22,WNW,300,0.0,0.0,62,0.00,,CLR,0.14,VWS V14.01,2013-12-18 05:17:00,
2013-12-17 23:21:00,27.8,16.9,30.22,WNW,300,0.0,0.0,63,0.00,,CLR,0.14,VWS V14.01,2013-12-18 05:21:00,
2013-12-17 23:22:00,27.8,16.9,30.22,WNW,300,0.0,0.0,63,0.00,,CLR,0.14,VWS V14.01,2013-12-18 05:22:00,
2013-12-17 23:26:00,27.7,16.8,30.22,WNW,300,0.0,0.0,63,0.00,,CLR,0.14,VWS V14.01,2013-12-18 05:26:00,
2013-12-17 23:28:00,27.7,16.8,30.22,WNW,300,0.0,0.0,63,0.00,,CLR,0.14,VWS V14.01,2013-12-18 05:28:00,
2013-12-17 23:29:00,27.7,16.8,30.22,WNW,300,0.0,0.0,63,0.00,,CLR,0.14,VWS V14.01,2013-12-18 05:29:00,
2013-12-17 23:30:00,27.7,16.8,30.22,WNW,300,0.0,0.0,63,0.00,,,0.14,VWS V14.01,2013-12-18 05:30:00,
2013-12-17 23:31:00,27.7,16.8,30.22,WNW,300,0.0,0.0,63,0.00,,CLR,0.14,VWS V14.01,2013-12-18 05:31:00,
2013-12-17 23:33:00,27.7,16.8,30.22,WNW,300,0.0,0.0,63,0.00,,CLR,0.14,VWS V14.01,2013-12-18 05:33:00,
2013-12-17 23:34:00,27.7,16.8,30.22,WNW,300,0.0,0.0,63,0.00,,CLR,0.14,VWS V14.01,2013-12-18 05:34:00,
2013-12-17 23:36:00,27.7,16.8,30.22,WNW,300,0.0,0.0,63,0.00,,CLR,0.14,VWS V14.01,2013-12-18 05:36:00,
2013-12-17 23:38:00,27.5,16.6,30.22,WNW,300,0.0,0.0,63,0.00,,CLR,0.14,VWS V14.01,2013-12-18 05:38:00,
2013-12-17 23:39:00,27.5,16.6,30.22,WNW,300,0.0,0.0,63,0.00,,CLR,0.14,VWS V14.01,2013-12-18 05:39:00,
2013-12-17 23:41:00,27.7,16.8,30.22,WNW,300,0.0,0.0,63,0.00,,CLR,0.14,VWS V14.01,2013-12-18 05:41:00,
2013-12-17 23:43:00,27.7,16.8,30.22,WNW,300,0.0,0.0,63,0.00,,CLR,0.14,VWS V14.01,2013-12-18 05:43:00,
2013-12-17 23:44:00,27.7,16.8,30.22,WNW,300,0.0,0.0,63,0.00,,CLR,0.14,VWS V14.01,2013-12-18 05:44:00,
2013-12-17 23:46:00,27.8,16.9,30.22,WNW,300,0.0,0.0,63,0.00,,CLR,0.14,VWS V14.01,2013-12-18 05:46:00,
2013-12-17 23:48:00,27.8,16.9,30.22,WNW,298,0.0,0.0,63,0.00,,CLR,0.14,VWS V14.01,2013-12-18 05:48:00,
2013-12-17 23:49:00,27.8,16.9,30.22,WNW,298,0.0,0.0,63,0.00,,CLR,0.14,VWS V14.01,2013-12-18 05:49:00,
2013-12-17 23:50:00,27.8,16.9,30.22,WNW,298,0.0,0.0,63,0.00,,CLR,0.14,VWS V14.01,2013-12-18 05:50:00,
2013-12-17 23:51:00,27.8,16.9,30.22,WNW,295,0.0,0.0,63,0.00,,CLR,0.14,VWS V14.01,2013-12-18 05:51:00,
2013-12-17 23:53:00,27.8,16.9,30.22,WNW,294,0.0,0.0,63,0.00,,CLR,0.14,VWS V14.01,2013-12-18 05:53:00,
2013-12-17 23:54:00,27.8,16.9,30.22,WNW,288,0.0,0.0,63,0.00,,CLR,0.14,VWS V14.01,2013-12-18 05:54:00,
2013-12-17 23:55:00,27.8,16.9,30.22,WNW,292,0.0,0.0,63,0.00,,CLR,0.14,VWS V14.01,2013-12-18 05:55:00,
2013-12-17 23:56:00,27.8,16.9,30.22,WNW,292,0.0,0.0,63,0.00,,CLR,0.14,VWS V14.01,2013-12-18 05:56:00,
2013-12-17 23:59:00,27.8,17.2,30.22,WNW,288,0.0,0.0,64,0.00,,CLR,0.14,VWS V14.01,2013-12-18 05:59:00,